<?xml version='1.0' encoding='UTF-8'?><gpx version="1.1" creator="JPX - https://github.com/jenetics/jpx" xmlns="http://www.topografix.com/GPX/1/1"><trk><trkseg><trkpt lat="43.31137416317916" lon="10.523097724815312"><ele>15.5</ele><time>2026-04-15T15:59:41.001Z</time></trkpt><trkpt lat="43.31142912621375" lon="10.52304968073384"><ele>16.0</ele><time>2026-04-15T15:59:46.5Z</time></trkpt><trkpt lat="43.311483170577205" lon="10.522957930351424"><ele>16.5</ele><time>2026-04-15T15:59:51.5Z</time></trkpt><trkpt lat="43.31156534509499" lon="10.522965403014714"><ele>17.0</ele><time>2026-04-15T15:59:56Z</time></trkpt><trkpt lat="43.311629827006456" lon="10.522962681528435"><ele>17.5</ele><time>2026-04-15T16:00:03Z</time></trkpt><trkpt lat="43.311692271044244" lon="10.522922722984692"><ele>18.0</ele><time>2026-04-15T16:00:08Z</time></trkpt><trkpt lat="43.31177646736232" lon="10.522934714039332"><ele>18.000000000000004</ele><time>2026-04-15T16:00:12Z</time></trkpt><trkpt lat="43.31183896823792" lon="10.522956484501657"><ele>18.0</ele><time>2026-04-15T16:00:14Z</time></trkpt><trkpt lat="43.31191110365855" lon="10.522942903454137"><ele>18.0</ele><time>2026-04-15T16:00:23Z</time></trkpt><trkpt lat="43.311960989425216" lon="10.52288181295561"><ele>18.0</ele><time>2026-04-15T16:00:25Z</time></trkpt><trkpt lat="43.31201264513706" lon="10.522824344586994"><ele>18.0</ele><time>2026-04-15T16:00:29Z</time></trkpt><trkpt lat="43.31208098979291" lon="10.52281055660058"><ele>18.000000000000004</ele><time>2026-04-15T16:00:34Z</time></trkpt><trkpt lat="43.31215410963077" lon="10.522855718170883"><ele>18.0</ele><time>2026-04-15T16:00:39Z</time></trkpt><trkpt lat="43.31223674141771" lon="10.522823232797256"><ele>18.28571428571429</ele><time>2026-04-15T16:00:47Z</time></trkpt><trkpt lat="43.31229574369763" lon="10.52279231557474"><ele>18.571428571428573</ele><time>2026-04-15T16:00:51Z</time></trkpt><trkpt lat="43.31237046208322" lon="10.52273725678353"><ele>18.857142857142858</ele><time>2026-04-15T16:00:56Z</time></trkpt><trkpt lat="43.31243929973464" lon="10.522686927315377"><ele>19.142857142857146</ele><time>2026-04-15T16:01:01Z</time></trkpt><trkpt lat="43.31250663306558" lon="10.522655386780947"><ele>19.42857142857143</ele><time>2026-04-15T16:01:06Z</time></trkpt><trkpt lat="43.312548429684696" lon="10.522579882298544"><ele>19.714285714285715</ele><time>2026-04-15T16:01:10Z</time></trkpt><trkpt lat="43.31257706915608" lon="10.522499903158003"><ele>20.0</ele><time>2026-04-15T16:01:15Z</time></trkpt><trkpt lat="43.312635951081276" lon="10.522443201853163"><ele>20.0</ele><time>2026-04-15T16:01:21Z</time></trkpt><trkpt lat="43.312698653219826" lon="10.52240140040236"><ele>20.0</ele><time>2026-04-15T16:01:25Z</time></trkpt><trkpt lat="43.31276664001257" lon="10.522393441431097"><ele>20.0</ele><time>2026-04-15T16:01:28Z</time></trkpt><trkpt lat="43.31284012533445" lon="10.522369151333237"><ele>20.0</ele><time>2026-04-15T16:01:33Z</time></trkpt><trkpt lat="43.31290324898398" lon="10.522342857048647"><ele>20.0</ele><time>2026-04-15T16:01:37Z</time></trkpt><trkpt lat="43.312966530383456" lon="10.522303401057174"><ele>20.0</ele><time>2026-04-15T16:01:42Z</time></trkpt><trkpt lat="43.313025747682076" lon="10.52226710955608"><ele>20.0</ele><time>2026-04-15T16:01:46Z</time></trkpt><trkpt lat="43.31308395781144" lon="10.522220115727032"><ele>19.857142857142858</ele><time>2026-04-15T16:01:49Z</time></trkpt><trkpt lat="43.31314359710971" lon="10.522175714818989"><ele>19.714285714285715</ele><time>2026-04-15T16:01:53Z</time></trkpt><trkpt lat="43.31321053866297" lon="10.522131048307836"><ele>19.57142857142857</ele><time>2026-04-15T16:01:59Z</time></trkpt><trkpt lat="43.31328120303257" lon="10.52208292120184"><ele>19.42857142857143</ele><time>2026-04-15T16:02:02Z</time></trkpt><trkpt lat="43.31333966226699" lon="10.52203344730961"><ele>19.28571428571429</ele><time>2026-04-15T16:02:06Z</time></trkpt><trkpt lat="43.31341259883486" lon="10.521997064511503"><ele>19.142857142857142</ele><time>2026-04-15T16:02:10Z</time></trkpt><trkpt lat="43.31344498934285" lon="10.521909027280596"><ele>19.0</ele><time>2026-04-15T16:02:14Z</time></trkpt><trkpt lat="43.31348450468339" lon="10.521817740526984"><ele>19.0</ele><time>2026-04-15T16:02:19Z</time></trkpt><trkpt lat="43.31351589992725" lon="10.521719974951296"><ele>19.0</ele><time>2026-04-15T16:02:24Z</time></trkpt><trkpt lat="43.31355696742005" lon="10.521654391502665"><ele>19.0</ele><time>2026-04-15T16:02:27Z</time></trkpt><trkpt lat="43.31360808886307" lon="10.521578769372887"><ele>19.0</ele><time>2026-04-15T16:02:31Z</time></trkpt><trkpt lat="43.31364617597591" lon="10.521493751933013"><ele>19.0</ele><time>2026-04-15T16:02:35Z</time></trkpt><trkpt lat="43.31366773740053" lon="10.521396007553912"><ele>19.0</ele><time>2026-04-15T16:02:39Z</time></trkpt><trkpt lat="43.31368073518937" lon="10.521294300870771"><ele>19.0</ele><time>2026-04-15T16:02:43Z</time></trkpt><trkpt lat="43.31372241092465" lon="10.521223338960269"><ele>19.0</ele><time>2026-04-15T16:02:47Z</time></trkpt><trkpt lat="43.313766517302085" lon="10.521134501207152"><ele>19.0</ele><time>2026-04-15T16:02:51Z</time></trkpt><trkpt lat="43.313805729245445" lon="10.52104862103025"><ele>19.0</ele><time>2026-04-15T16:02:56Z</time></trkpt><trkpt lat="43.31386229516544" lon="10.520974457189945"><ele>19.0</ele><time>2026-04-15T16:03:00Z</time></trkpt><trkpt lat="43.313983091074235" lon="10.520889241069545"><ele>19.0</ele><time>2026-04-15T16:03:13Z</time></trkpt><trkpt lat="43.31404193125663" lon="10.520809966306715"><ele>19.0</ele><time>2026-04-15T16:03:17Z</time></trkpt><trkpt lat="43.31412461560591" lon="10.520795279365762"><ele>18.71428571428571</ele><time>2026-04-15T16:03:20Z</time></trkpt><trkpt lat="43.314192510304245" lon="10.520778391720402"><ele>18.42857142857143</ele><time>2026-04-15T16:03:25Z</time></trkpt><trkpt lat="43.314261231687865" lon="10.520773116864364"><ele>18.142857142857142</ele><time>2026-04-15T16:03:30Z</time></trkpt><trkpt lat="43.31430895513177" lon="10.520695230441643"><ele>17.857142857142854</ele><time>2026-04-15T16:03:33Z</time></trkpt><trkpt lat="43.314378570206415" lon="10.520700729713548"><ele>17.57142857142857</ele><time>2026-04-15T16:03:36Z</time></trkpt><trkpt lat="43.31444186556723" lon="10.520687283644444"><ele>17.285714285714285</ele><time>2026-04-15T16:03:40Z</time></trkpt><trkpt lat="43.314512452988225" lon="10.520665668216287"><ele>17.0</ele><time>2026-04-15T16:03:45Z</time></trkpt><trkpt lat="43.31459210959322" lon="10.520664340565725"><ele>16.999999999999996</ele><time>2026-04-15T16:03:48Z</time></trkpt><trkpt lat="43.314660996343235" lon="10.520659053158859"><ele>17.0</ele><time>2026-04-15T16:03:51Z</time></trkpt><trkpt lat="43.314726753223994" lon="10.520670514765822"><ele>17.0</ele><time>2026-04-15T16:03:55Z</time></trkpt><trkpt lat="43.31479261178168" lon="10.520693190446805"><ele>17.0</ele><time>2026-04-15T16:03:59Z</time></trkpt><trkpt lat="43.31485909703111" lon="10.52068673518758"><ele>17.0</ele><time>2026-04-15T16:04:03Z</time></trkpt><trkpt lat="43.31492878915052" lon="10.520671665426722"><ele>16.999999999999996</ele><time>2026-04-15T16:04:07Z</time></trkpt><trkpt lat="43.31499174276529" lon="10.520662526474613"><ele>17.0</ele><time>2026-04-15T16:04:10Z</time></trkpt><trkpt lat="43.3150624414254" lon="10.520652996816967"><ele>16.71428571428571</ele><time>2026-04-15T16:04:14Z</time></trkpt><trkpt lat="43.31512881994527" lon="10.520635714046376"><ele>16.428571428571427</ele><time>2026-04-15T16:04:18Z</time></trkpt><trkpt lat="43.31517518898851" lon="10.520557474626877"><ele>16.142857142857142</ele><time>2026-04-15T16:04:27Z</time></trkpt><trkpt lat="43.3152229293114" lon="10.520478592095785"><ele>15.857142857142856</ele><time>2026-04-15T16:04:32Z</time></trkpt><trkpt lat="43.315229856879895" lon="10.520389150606215"><ele>15.57142857142857</ele><time>2026-04-15T16:04:36Z</time></trkpt><trkpt lat="43.315219168580924" lon="10.52029345802144"><ele>15.285714285714286</ele><time>2026-04-15T16:04:40Z</time></trkpt><trkpt lat="43.31518919788041" lon="10.520185392117675"><ele>15.0</ele><time>2026-04-15T16:04:44Z</time></trkpt><trkpt lat="43.31517475966525" lon="10.520096874345276"><ele>15.571428571428573</ele><time>2026-04-15T16:04:48Z</time></trkpt><trkpt lat="43.31516370454182" lon="10.520010464410303"><ele>16.142857142857142</ele><time>2026-04-15T16:04:52Z</time></trkpt><trkpt lat="43.315122849991496" lon="10.51991789120358"><ele>16.714285714285715</ele><time>2026-04-15T16:04:57Z</time></trkpt><trkpt lat="43.315098211709625" lon="10.5198246586714"><ele>17.285714285714285</ele><time>2026-04-15T16:05:02Z</time></trkpt><trkpt lat="43.315068325288486" lon="10.519740272446878"><ele>17.857142857142858</ele><time>2026-04-15T16:05:07Z</time></trkpt><trkpt lat="43.31502321059138" lon="10.519659814423788"><ele>18.428571428571427</ele><time>2026-04-15T16:05:11Z</time></trkpt><trkpt lat="43.314976623852104" lon="10.519579368866763"><ele>19.0</ele><time>2026-04-15T16:05:16Z</time></trkpt><trkpt lat="43.31493820078987" lon="10.519490996356009"><ele>19.0</ele><time>2026-04-15T16:05:20Z</time></trkpt><trkpt lat="43.31490700985137" lon="10.519394901219167"><ele>19.0</ele><time>2026-04-15T16:05:24Z</time></trkpt><trkpt lat="43.31489508651001" lon="10.51929696436957"><ele>19.0</ele><time>2026-04-15T16:05:28Z</time></trkpt><trkpt lat="43.3148673203981" lon="10.519205857733054"><ele>19.0</ele><time>2026-04-15T16:05:32Z</time></trkpt><trkpt lat="43.314847700960705" lon="10.519106348309435"><ele>19.0</ele><time>2026-04-15T16:05:36Z</time></trkpt><trkpt lat="43.31482427146393" lon="10.519021423489503"><ele>19.0</ele><time>2026-04-15T16:05:40Z</time></trkpt><trkpt lat="43.31479440019402" lon="10.518937362622953"><ele>19.0</ele><time>2026-04-15T16:05:44Z</time></trkpt><trkpt lat="43.314737141992396" lon="10.518863311562596"><ele>18.57142857142857</ele><time>2026-04-15T16:05:48Z</time></trkpt><trkpt lat="43.31473515991142" lon="10.51877009298487"><ele>18.142857142857146</ele><time>2026-04-15T16:05:52Z</time></trkpt><trkpt lat="43.31470842877295" lon="10.51869043641312"><ele>17.714285714285715</ele><time>2026-04-15T16:05:55Z</time></trkpt><trkpt lat="43.31468564361185" lon="10.518603949615995"><ele>17.285714285714285</ele><time>2026-04-15T16:05:59Z</time></trkpt><trkpt lat="43.31465605689511" lon="10.518516127530916"><ele>16.857142857142854</ele><time>2026-04-15T16:06:03Z</time></trkpt><trkpt lat="43.31462197587769" lon="10.518421037257086"><ele>16.428571428571427</ele><time>2026-04-15T16:06:10Z</time></trkpt><trkpt lat="43.31456884763779" lon="10.51833140428809"><ele>16.0</ele><time>2026-04-15T16:06:14Z</time></trkpt><trkpt lat="43.31451882152772" lon="10.518241878913381"><ele>15.857142857142856</ele><time>2026-04-15T16:06:18Z</time></trkpt><trkpt lat="43.31449339752095" lon="10.51813706102329"><ele>15.714285714285712</ele><time>2026-04-15T16:06:23Z</time></trkpt><trkpt lat="43.314477823655295" lon="10.518043385866276"><ele>15.571428571428571</ele><time>2026-04-15T16:06:28Z</time></trkpt><trkpt lat="43.314449674707326" lon="10.517964949502867"><ele>15.428571428571427</ele><time>2026-04-15T16:06:32Z</time></trkpt><trkpt lat="43.31442201854079" lon="10.517879720187153"><ele>15.285714285714285</ele><time>2026-04-15T16:06:36Z</time></trkpt><trkpt lat="43.314391806288896" lon="10.517791584674848"><ele>15.142857142857142</ele><time>2026-04-15T16:06:40Z</time></trkpt><trkpt lat="43.31437598481389" lon="10.517704580529296"><ele>15.0</ele><time>2026-04-15T16:06:43Z</time></trkpt><trkpt lat="43.314356563217075" lon="10.517594883016931"><ele>15.0</ele><time>2026-04-15T16:06:46Z</time></trkpt><trkpt lat="43.314333886702855" lon="10.51749858013719"><ele>15.0</ele><time>2026-04-15T16:06:50Z</time></trkpt><trkpt lat="43.31430686565512" lon="10.517405249054912"><ele>15.0</ele><time>2026-04-15T16:06:54Z</time></trkpt><trkpt lat="43.314286069452535" lon="10.517320920726021"><ele>15.0</ele><time>2026-04-15T16:06:58Z</time></trkpt><trkpt lat="43.314264958006746" lon="10.51722287274469"><ele>15.0</ele><time>2026-04-15T16:07:02Z</time></trkpt><trkpt lat="43.31422803080949" lon="10.517136329377061"><ele>15.0</ele><time>2026-04-15T16:07:07Z</time></trkpt><trkpt lat="43.314208572310896" lon="10.517040302786492"><ele>15.0</ele><time>2026-04-15T16:07:13Z</time></trkpt><trkpt lat="43.31419671465043" lon="10.516952837364906"><ele>15.0</ele><time>2026-04-15T16:07:18Z</time></trkpt><trkpt lat="43.31415997831639" lon="10.516863156819428"><ele>15.0</ele><time>2026-04-15T16:07:22Z</time></trkpt><trkpt lat="43.31412612898183" lon="10.516770371115152"><ele>15.0</ele><time>2026-04-15T16:07:26Z</time></trkpt><trkpt lat="43.31409174750421" lon="10.516683508635124"><ele>15.0</ele><time>2026-04-15T16:07:30Z</time></trkpt><trkpt lat="43.31405704323162" lon="10.516602195858143"><ele>15.0</ele><time>2026-04-15T16:07:34Z</time></trkpt><trkpt lat="43.3140078977732" lon="10.516524410978848"><ele>15.0</ele><time>2026-04-15T16:07:38Z</time></trkpt><trkpt lat="43.31400059248379" lon="10.516428126321548"><ele>15.0</ele><time>2026-04-15T16:07:43Z</time></trkpt><trkpt lat="43.3139967815265" lon="10.516318553346956"><ele>14.714285714285715</ele><time>2026-04-15T16:07:47Z</time></trkpt><trkpt lat="43.313953829952304" lon="10.516233544459487"><ele>14.428571428571427</ele><time>2026-04-15T16:07:50Z</time></trkpt><trkpt lat="43.31394370248173" lon="10.516138701556796"><ele>14.142857142857142</ele><time>2026-04-15T16:07:55Z</time></trkpt><trkpt lat="43.31399209265031" lon="10.51607677747083"><ele>13.857142857142858</ele><time>2026-04-15T16:08:00Z</time></trkpt><trkpt lat="43.31395682510757" lon="10.515989227550246"><ele>13.571428571428573</ele><time>2026-04-15T16:08:05Z</time></trkpt><trkpt lat="43.31392905369753" lon="10.515899196203659"><ele>13.285714285714285</ele><time>2026-04-15T16:08:08Z</time></trkpt><trkpt lat="43.31394184530998" lon="10.515806344827578"><ele>13.0</ele><time>2026-04-15T16:08:12Z</time></trkpt><trkpt lat="43.313920978336924" lon="10.51568892591892"><ele>13.0</ele><time>2026-04-15T16:08:16Z</time></trkpt><trkpt lat="43.313913491063936" lon="10.515571286517208"><ele>13.0</ele><time>2026-04-15T16:08:20Z</time></trkpt><trkpt lat="43.313924907676" lon="10.515477952520904"><ele>13.0</ele><time>2026-04-15T16:08:26Z</time></trkpt><trkpt lat="43.31390820707857" lon="10.515376552041738"><ele>13.0</ele><time>2026-04-15T16:08:30Z</time></trkpt><trkpt lat="43.31390587802954" lon="10.51528842798871"><ele>13.0</ele><time>2026-04-15T16:08:34Z</time></trkpt><trkpt lat="43.31396927961507" lon="10.515259876995456"><ele>13.0</ele><time>2026-04-15T16:08:41Z</time></trkpt><trkpt lat="43.31403135843998" lon="10.515213469556995"><ele>13.0</ele><time>2026-04-15T16:08:45Z</time></trkpt><trkpt lat="43.314102114392114" lon="10.515165518053955"><ele>12.428571428571429</ele><time>2026-04-15T16:08:49Z</time></trkpt><trkpt lat="43.314161411182106" lon="10.515100768138412"><ele>11.857142857142858</ele><time>2026-04-15T16:08:53Z</time></trkpt><trkpt lat="43.31422810241368" lon="10.515045571644322"><ele>11.285714285714286</ele><time>2026-04-15T16:08:57Z</time></trkpt><trkpt lat="43.31428214617003" lon="10.514990562282014"><ele>10.714285714285715</ele><time>2026-04-15T16:09:00Z</time></trkpt><trkpt lat="43.314268645964425" lon="10.514901634345158"><ele>10.142857142857142</ele><time>2026-04-15T16:09:05Z</time></trkpt><trkpt lat="43.31430763564717" lon="10.51481776963369"><ele>9.571428571428573</ele><time>2026-04-15T16:09:12Z</time></trkpt><trkpt lat="43.31437768057523" lon="10.514780685148217"><ele>9.0</ele><time>2026-04-15T16:09:16Z</time></trkpt><trkpt lat="43.314431943390794" lon="10.514717610156762"><ele>9.000000000000002</ele><time>2026-04-15T16:09:21Z</time></trkpt><trkpt lat="43.314419279399985" lon="10.514615170905262"><ele>9.0</ele><time>2026-04-15T16:09:26Z</time></trkpt><trkpt lat="43.31439599362622" lon="10.514528953699944"><ele>9.0</ele><time>2026-04-15T16:09:30Z</time></trkpt><trkpt lat="43.314373040073264" lon="10.51444604328091"><ele>9.0</ele><time>2026-04-15T16:09:35Z</time></trkpt><trkpt lat="43.31433105349563" lon="10.514366010199492"><ele>9.0</ele><time>2026-04-15T16:09:39Z</time></trkpt><trkpt lat="43.31428820065328" lon="10.514286642762999"><ele>9.000000000000002</ele><time>2026-04-15T16:09:43Z</time></trkpt><trkpt lat="43.31424708662899" lon="10.514207270124619"><ele>9.0</ele><time>2026-04-15T16:09:47Z</time></trkpt><trkpt lat="43.314214521014684" lon="10.514120738032272"><ele>8.714285714285715</ele><time>2026-04-15T16:09:51Z</time></trkpt><trkpt lat="43.314187280154506" lon="10.514033238713676"><ele>8.428571428571429</ele><time>2026-04-15T16:09:55Z</time></trkpt><trkpt lat="43.31414451316613" lon="10.513957380231671"><ele>8.142857142857142</ele><time>2026-04-15T16:09:59Z</time></trkpt><trkpt lat="43.31412480217007" lon="10.513874084962971"><ele>7.857142857142858</ele><time>2026-04-15T16:10:03Z</time></trkpt><trkpt lat="43.31410069524919" lon="10.51377412556572"><ele>7.571428571428571</ele><time>2026-04-15T16:10:06Z</time></trkpt><trkpt lat="43.314072244888905" lon="10.51368575391731"><ele>7.285714285714286</ele><time>2026-04-15T16:10:10Z</time></trkpt><trkpt lat="43.314045054768876" lon="10.513603733228743"><ele>7.0</ele><time>2026-04-15T16:10:14Z</time></trkpt><trkpt lat="43.314022117971156" lon="10.513519363883793"><ele>6.714285714285714</ele><time>2026-04-15T16:10:18Z</time></trkpt><trkpt lat="43.31399358787999" lon="10.513432259531706"><ele>6.428571428571429</ele><time>2026-04-15T16:10:22Z</time></trkpt><trkpt lat="43.31396332481475" lon="10.513349365610846"><ele>6.142857142857142</ele><time>2026-04-15T16:10:26Z</time></trkpt><trkpt lat="43.313931529789016" lon="10.513271477908003"><ele>5.857142857142858</ele><time>2026-04-15T16:10:30Z</time></trkpt><trkpt lat="43.313905238434245" lon="10.513192532849505"><ele>5.571428571428571</ele><time>2026-04-15T16:10:34Z</time></trkpt><trkpt lat="43.313878983458146" lon="10.513096561340546"><ele>5.285714285714286</ele><time>2026-04-15T16:10:39Z</time></trkpt><trkpt lat="43.31385090451092" lon="10.513001164585924"><ele>5.0</ele><time>2026-04-15T16:10:45Z</time></trkpt><trkpt lat="43.31383759442174" lon="10.512895150746145"><ele>4.857142857142857</ele><time>2026-04-15T16:10:51Z</time></trkpt><trkpt lat="43.31387634274698" lon="10.512814026328737"><ele>4.714285714285714</ele><time>2026-04-15T16:10:55Z</time></trkpt><trkpt lat="43.31390454078105" lon="10.51272788781494"><ele>4.571428571428571</ele><time>2026-04-15T16:10:59Z</time></trkpt><trkpt lat="43.3139217421519" lon="10.512622514745974"><ele>4.428571428571429</ele><time>2026-04-15T16:11:03Z</time></trkpt><trkpt lat="43.31390999325646" lon="10.51252202374623"><ele>4.285714285714286</ele><time>2026-04-15T16:11:07Z</time></trkpt><trkpt lat="43.313896979561584" lon="10.5124319088784"><ele>4.142857142857142</ele><time>2026-04-15T16:11:11Z</time></trkpt><trkpt lat="43.313885478797076" lon="10.512339293393184"><ele>4.0</ele><time>2026-04-15T16:11:15Z</time></trkpt><trkpt lat="43.31387703389024" lon="10.51225272784254"><ele>4.714285714285714</ele><time>2026-04-15T16:11:19Z</time></trkpt><trkpt lat="43.31387769848288" lon="10.512161636529166"><ele>5.428571428571429</ele><time>2026-04-15T16:11:25Z</time></trkpt><trkpt lat="43.31384899557186" lon="10.51208053831097"><ele>6.142857142857143</ele><time>2026-04-15T16:11:30Z</time></trkpt><trkpt lat="43.31374416274885" lon="10.512021247083826"><ele>6.857142857142858</ele><time>2026-04-15T16:11:34Z</time></trkpt><trkpt lat="43.31370471630738" lon="10.511941851868865"><ele>7.571428571428571</ele><time>2026-04-15T16:11:38Z</time></trkpt><trkpt lat="43.31369248923685" lon="10.51185633569415"><ele>8.285714285714286</ele><time>2026-04-15T16:11:41Z</time></trkpt><trkpt lat="43.31367953644594" lon="10.511768322615609"><ele>9.0</ele><time>2026-04-15T16:11:44Z</time></trkpt><trkpt lat="43.313661418293506" lon="10.511663825701941"><ele>9.000000000000002</ele><time>2026-04-15T16:11:48Z</time></trkpt><trkpt lat="43.31363571045188" lon="10.511572154285142"><ele>9.0</ele><time>2026-04-15T16:11:52Z</time></trkpt><trkpt lat="43.31361479495022" lon="10.511472297853384"><ele>9.0</ele><time>2026-04-15T16:11:56Z</time></trkpt><trkpt lat="43.31359053097964" lon="10.511379273602403"><ele>9.0</ele><time>2026-04-15T16:12:00Z</time></trkpt><trkpt lat="43.31356762334947" lon="10.51128403743226"><ele>9.0</ele><time>2026-04-15T16:12:04Z</time></trkpt><trkpt lat="43.31354542814665" lon="10.511192047368022"><ele>9.000000000000002</ele><time>2026-04-15T16:12:08Z</time></trkpt><trkpt lat="43.313513094915564" lon="10.511107766171877"><ele>9.0</ele><time>2026-04-15T16:12:12Z</time></trkpt><trkpt lat="43.31345577515321" lon="10.511051573144607"><ele>8.142857142857144</ele><time>2026-04-15T16:12:16Z</time></trkpt><trkpt lat="43.31338973394147" lon="10.511023462093583"><ele>7.285714285714286</ele><time>2026-04-15T16:12:20Z</time></trkpt><trkpt lat="43.31332029304555" lon="10.510999046848019"><ele>6.428571428571429</ele><time>2026-04-15T16:12:24Z</time></trkpt><trkpt lat="43.31326493688837" lon="10.510942787005524"><ele>5.571428571428572</ele><time>2026-04-15T16:12:28Z</time></trkpt><trkpt lat="43.31324851417972" lon="10.510856731221352"><ele>4.714285714285714</ele><time>2026-04-15T16:12:32Z</time></trkpt><trkpt lat="43.31322615335758" lon="10.510754504016289"><ele>3.8571428571428568</ele><time>2026-04-15T16:12:37Z</time></trkpt><trkpt lat="43.31321324250186" lon="10.5106690073094"><ele>3.0</ele><time>2026-04-15T16:12:41Z</time></trkpt><trkpt lat="43.313196534879694" lon="10.510583714090679"><ele>2.9999999999999996</ele><time>2026-04-15T16:12:45Z</time></trkpt><trkpt lat="43.3131784683814" lon="10.510499230698981"><ele>3.0</ele><time>2026-04-15T16:12:49Z</time></trkpt><trkpt lat="43.31315995273136" lon="10.510413805847097"><ele>3.0</ele><time>2026-04-15T16:12:53Z</time></trkpt><trkpt lat="43.313136329875114" lon="10.510324330532782"><ele>3.0</ele><time>2026-04-15T16:12:57Z</time></trkpt><trkpt lat="43.313122783560594" lon="10.510230168797474"><ele>3.0</ele><time>2026-04-15T16:13:01Z</time></trkpt><trkpt lat="43.31310405997152" lon="10.510140047266493"><ele>2.9999999999999996</ele><time>2026-04-15T16:13:05Z</time></trkpt><trkpt lat="43.31309171019436" lon="10.510050775836557"><ele>3.0</ele><time>2026-04-15T16:13:09Z</time></trkpt><trkpt lat="43.313071523519476" lon="10.509966382283242"><ele>2.9999999999999996</ele><time>2026-04-15T16:13:13Z</time></trkpt><trkpt lat="43.31305123132546" lon="10.509878192507676"><ele>3.0</ele><time>2026-04-15T16:13:17Z</time></trkpt><trkpt lat="43.313030141451705" lon="10.509789047483455"><ele>3.0</ele><time>2026-04-15T16:13:21Z</time></trkpt><trkpt lat="43.31301555642022" lon="10.509698888539988"><ele>3.0</ele><time>2026-04-15T16:13:25Z</time></trkpt><trkpt lat="43.31299946617824" lon="10.509605659115453"><ele>3.0</ele><time>2026-04-15T16:13:29Z</time></trkpt><trkpt lat="43.31298435998874" lon="10.509517470599688"><ele>2.9999999999999996</ele><time>2026-04-15T16:13:33Z</time></trkpt><trkpt lat="43.31296808008483" lon="10.509424990161651"><ele>3.0</ele><time>2026-04-15T16:13:37Z</time></trkpt><trkpt lat="43.31295377490608" lon="10.509338137764367"><ele>2.9999999999999996</ele><time>2026-04-15T16:13:41Z</time></trkpt><trkpt lat="43.31293434858067" lon="10.509248966702426"><ele>3.0</ele><time>2026-04-15T16:13:45Z</time></trkpt><trkpt lat="43.312911575673624" lon="10.509163687060946"><ele>3.0</ele><time>2026-04-15T16:13:49Z</time></trkpt><trkpt lat="43.312892290368886" lon="10.50905724619797"><ele>3.0</ele><time>2026-04-15T16:13:54Z</time></trkpt><trkpt lat="43.31287763128605" lon="10.508968903833232"><ele>3.0</ele><time>2026-04-15T16:13:58Z</time></trkpt><trkpt lat="43.31285585878028" lon="10.508877975119297"><ele>2.9999999999999996</ele><time>2026-04-15T16:14:02Z</time></trkpt><trkpt lat="43.31283757727833" lon="10.5087828122975"><ele>3.0</ele><time>2026-04-15T16:14:06Z</time></trkpt><trkpt lat="43.31282333836833" lon="10.50868754564643"><ele>2.9999999999999996</ele><time>2026-04-15T16:14:10Z</time></trkpt><trkpt lat="43.312801785316445" lon="10.50859299471663"><ele>3.0</ele><time>2026-04-15T16:14:14Z</time></trkpt><trkpt lat="43.31278566638529" lon="10.508500686900401"><ele>3.0</ele><time>2026-04-15T16:14:18Z</time></trkpt><trkpt lat="43.31277733974379" lon="10.50841032769938"><ele>3.0</ele><time>2026-04-15T16:14:22Z</time></trkpt><trkpt lat="43.312766801133066" lon="10.508321311806386"><ele>3.0</ele><time>2026-04-15T16:14:26Z</time></trkpt><trkpt lat="43.31275537136565" lon="10.508227419802916"><ele>2.9999999999999996</ele><time>2026-04-15T16:14:30Z</time></trkpt><trkpt lat="43.31274774794522" lon="10.508131552573259"><ele>3.0</ele><time>2026-04-15T16:14:34Z</time></trkpt><trkpt lat="43.31273653999508" lon="10.508037794522945"><ele>2.9999999999999996</ele><time>2026-04-15T16:14:38Z</time></trkpt><trkpt lat="43.31272869426113" lon="10.507942983583886"><ele>3.0</ele><time>2026-04-15T16:14:42Z</time></trkpt><trkpt lat="43.31272894047524" lon="10.507850245232202"><ele>3.0</ele><time>2026-04-15T16:14:46Z</time></trkpt><trkpt lat="43.312726473700295" lon="10.507755317815732"><ele>3.0</ele><time>2026-04-15T16:14:50Z</time></trkpt><trkpt lat="43.31272750059168" lon="10.507667566169513"><ele>3.0</ele><time>2026-04-15T16:14:54Z</time></trkpt><trkpt lat="43.3127290646717" lon="10.507558143710899"><ele>2.9999999999999996</ele><time>2026-04-15T16:14:59Z</time></trkpt><trkpt lat="43.31271900211121" lon="10.50747138194933"><ele>3.0</ele><time>2026-04-15T16:15:02Z</time></trkpt><trkpt lat="43.31271539370419" lon="10.507372698897543"><ele>2.8571428571428568</ele><time>2026-04-15T16:15:06Z</time></trkpt><trkpt lat="43.312712095596765" lon="10.50728263621604"><ele>2.7142857142857144</ele><time>2026-04-15T16:15:10Z</time></trkpt><trkpt lat="43.31271055988184" lon="10.507195231781425"><ele>2.571428571428571</ele><time>2026-04-15T16:15:14Z</time></trkpt><trkpt lat="43.312710291381116" lon="10.507103556438935"><ele>2.4285714285714284</ele><time>2026-04-15T16:15:18Z</time></trkpt><trkpt lat="43.3127110802029" lon="10.50701580797963"><ele>2.2857142857142856</ele><time>2026-04-15T16:15:22Z</time></trkpt><trkpt lat="43.31270878668538" lon="10.506928254113392"><ele>2.142857142857143</ele><time>2026-04-15T16:15:26Z</time></trkpt><trkpt lat="43.31270358963978" lon="10.50683855570257"><ele>2.0</ele><time>2026-04-15T16:15:30Z</time></trkpt><trkpt lat="43.31270496092838" lon="10.506749520853274"><ele>2.0</ele><time>2026-04-15T16:15:34Z</time></trkpt><trkpt lat="43.312711137352416" lon="10.506656737263869"><ele>1.9999999999999998</ele><time>2026-04-15T16:15:38Z</time></trkpt><trkpt lat="43.3127090768998" lon="10.506569132095883"><ele>2.0</ele><time>2026-04-15T16:15:42Z</time></trkpt><trkpt lat="43.3127115122733" lon="10.506461785612172"><ele>2.0</ele><time>2026-04-15T16:15:47Z</time></trkpt><trkpt lat="43.31271464153995" lon="10.506371606582134"><ele>1.9999999999999998</ele><time>2026-04-15T16:15:51Z</time></trkpt><trkpt lat="43.31271697888472" lon="10.50626511747525"><ele>2.0</ele><time>2026-04-15T16:15:56Z</time></trkpt><trkpt lat="43.31272033758485" lon="10.506177696079186"><ele>2.0</ele><time>2026-04-15T16:16:00Z</time></trkpt><trkpt lat="43.31272141839438" lon="10.506086500542148"><ele>2.0</ele><time>2026-04-15T16:16:04Z</time></trkpt><trkpt lat="43.31272351594762" lon="10.50599527326935"><ele>1.9999999999999998</ele><time>2026-04-15T16:16:08Z</time></trkpt><trkpt lat="43.31273105152673" lon="10.505903388880952"><ele>2.0</ele><time>2026-04-15T16:16:12Z</time></trkpt><trkpt lat="43.31272084344386" lon="10.505810958529594"><ele>2.0</ele><time>2026-04-15T16:16:16Z</time></trkpt><trkpt lat="43.31271120761377" lon="10.50572080984592"><ele>1.9999999999999998</ele><time>2026-04-15T16:16:20Z</time></trkpt><trkpt lat="43.31270904495418" lon="10.505624715552647"><ele>2.0</ele><time>2026-04-15T16:16:24Z</time></trkpt><trkpt lat="43.31270275862436" lon="10.505532305144657"><ele>2.0</ele><time>2026-04-15T16:16:28Z</time></trkpt><trkpt lat="43.312697280930855" lon="10.505439876129051"><ele>2.142857142857143</ele><time>2026-04-15T16:16:32Z</time></trkpt><trkpt lat="43.31268362555844" lon="10.50534984283211"><ele>2.2857142857142856</ele><time>2026-04-15T16:16:36Z</time></trkpt><trkpt lat="43.31267549074763" lon="10.50525799731777"><ele>2.4285714285714284</ele><time>2026-04-15T16:16:40Z</time></trkpt><trkpt lat="43.31265708150339" lon="10.505160699670103"><ele>2.571428571428571</ele><time>2026-04-15T16:16:44Z</time></trkpt><trkpt lat="43.312635056974756" lon="10.505068794383885"><ele>2.7142857142857144</ele><time>2026-04-15T16:16:48Z</time></trkpt><trkpt lat="43.31261157361586" lon="10.504982074504756"><ele>2.8571428571428568</ele><time>2026-04-15T16:16:52Z</time></trkpt><trkpt lat="43.31259016775881" lon="10.504896139553457"><ele>3.0</ele><time>2026-04-15T16:16:56Z</time></trkpt><trkpt lat="43.312564391694856" lon="10.504811935389826"><ele>2.9999999999999996</ele><time>2026-04-15T16:17:00Z</time></trkpt><trkpt lat="43.312535186609374" lon="10.504724705723948"><ele>3.0</ele><time>2026-04-15T16:17:04Z</time></trkpt><trkpt lat="43.312501320101404" lon="10.504636875362515"><ele>3.0</ele><time>2026-04-15T16:17:08Z</time></trkpt><trkpt lat="43.31247007912353" lon="10.504549858707932"><ele>3.0</ele><time>2026-04-15T16:17:12Z</time></trkpt><trkpt lat="43.3124421578563" lon="10.50446286499125"><ele>3.0</ele><time>2026-04-15T16:17:16Z</time></trkpt><trkpt lat="43.312413679136405" lon="10.504375499069432"><ele>2.9999999999999996</ele><time>2026-04-15T16:17:20Z</time></trkpt><trkpt lat="43.31238091936193" lon="10.50428757437098"><ele>3.0</ele><time>2026-04-15T16:17:24Z</time></trkpt><trkpt lat="43.31235248603743" lon="10.50420017106835"><ele>3.1428571428571423</ele><time>2026-04-15T16:17:28Z</time></trkpt><trkpt lat="43.312319974156466" lon="10.504112609870196"><ele>3.2857142857142856</ele><time>2026-04-15T16:17:32Z</time></trkpt><trkpt lat="43.31228946106482" lon="10.504022028657566"><ele>3.4285714285714284</ele><time>2026-04-15T16:17:36Z</time></trkpt><trkpt lat="43.31225833451121" lon="10.503943281257337"><ele>3.571428571428571</ele><time>2026-04-15T16:17:40Z</time></trkpt><trkpt lat="43.31222925562418" lon="10.503861012353571"><ele>3.714285714285714</ele><time>2026-04-15T16:17:44Z</time></trkpt><trkpt lat="43.31220223427105" lon="10.503782156880737"><ele>3.8571428571428568</ele><time>2026-04-15T16:17:48Z</time></trkpt><trkpt lat="43.312172639299654" lon="10.503700136644051"><ele>4.0</ele><time>2026-04-15T16:17:52Z</time></trkpt><trkpt lat="43.31214265309199" lon="10.503612421636717"><ele>3.571428571428571</ele><time>2026-04-15T16:17:56Z</time></trkpt><trkpt lat="43.312118669198306" lon="10.503524118885068"><ele>3.1428571428571423</ele><time>2026-04-15T16:18:00Z</time></trkpt><trkpt lat="43.31209102980174" lon="10.503440039151847"><ele>2.714285714285714</ele><time>2026-04-15T16:18:04Z</time></trkpt><trkpt lat="43.312060578721685" lon="10.503358140406156"><ele>2.2857142857142856</ele><time>2026-04-15T16:18:08Z</time></trkpt><trkpt lat="43.31203106881031" lon="10.503275009411036"><ele>1.857142857142857</ele><time>2026-04-15T16:18:12Z</time></trkpt><trkpt lat="43.31199909055396" lon="10.503193971968921"><ele>1.4285714285714284</ele><time>2026-04-15T16:18:16Z</time></trkpt><trkpt lat="43.31196247390487" lon="10.503114170561743"><ele>1.0</ele><time>2026-04-15T16:18:20Z</time></trkpt><trkpt lat="43.31193402360317" lon="10.50302840748914"><ele>1.0</ele><time>2026-04-15T16:18:24Z</time></trkpt><trkpt lat="43.311900181203434" lon="10.502946686022558"><ele>0.9999999999999999</ele><time>2026-04-15T16:18:28Z</time></trkpt><trkpt lat="43.31186729915216" lon="10.502860810527636"><ele>1.0</ele><time>2026-04-15T16:18:32Z</time></trkpt><trkpt lat="43.31183461980196" lon="10.502775798304663"><ele>1.0</ele><time>2026-04-15T16:18:36Z</time></trkpt><trkpt lat="43.31179773777513" lon="10.502695400507944"><ele>0.9999999999999999</ele><time>2026-04-15T16:18:40Z</time></trkpt><trkpt lat="43.31175602648957" lon="10.502626293788166"><ele>1.0</ele><time>2026-04-15T16:18:44Z</time></trkpt><trkpt lat="43.311709898949424" lon="10.502554425244195"><ele>1.0</ele><time>2026-04-15T16:18:48Z</time></trkpt><trkpt lat="43.311664329066" lon="10.502479055900254"><ele>1.1428571428571428</ele><time>2026-04-15T16:18:52Z</time></trkpt><trkpt lat="43.311618018277684" lon="10.502418448544713"><ele>1.2857142857142856</ele><time>2026-04-15T16:18:56Z</time></trkpt><trkpt lat="43.31157889825107" lon="10.502348986354505"><ele>1.4285714285714284</ele><time>2026-04-15T16:19:00Z</time></trkpt><trkpt lat="43.31152537864896" lon="10.502286314884799"><ele>1.5714285714285714</ele><time>2026-04-15T16:19:04Z</time></trkpt><trkpt lat="43.31147607634422" lon="10.502222888507282"><ele>1.714285714285714</ele><time>2026-04-15T16:19:08Z</time></trkpt><trkpt lat="43.31142376816373" lon="10.502167531958849"><ele>1.857142857142857</ele><time>2026-04-15T16:19:12Z</time></trkpt><trkpt lat="43.3113713486032" lon="10.502116221995665"><ele>2.0</ele><time>2026-04-15T16:19:16Z</time></trkpt><trkpt lat="43.311305137345045" lon="10.502062884788769"><ele>2.0</ele><time>2026-04-15T16:19:21Z</time></trkpt><trkpt lat="43.31125032633743" lon="10.502018558772628"><ele>1.9999999999999998</ele><time>2026-04-15T16:19:25Z</time></trkpt><trkpt lat="43.31118768443497" lon="10.501989979358521"><ele>2.0</ele><time>2026-04-15T16:19:29Z</time></trkpt><trkpt lat="43.311126014638475" lon="10.501955458336338"><ele>2.0</ele><time>2026-04-15T16:19:33Z</time></trkpt><trkpt lat="43.311067748554386" lon="10.501922068774016"><ele>1.9999999999999998</ele><time>2026-04-15T16:19:37Z</time></trkpt><trkpt lat="43.311008560525806" lon="10.501889371408087"><ele>2.0</ele><time>2026-04-15T16:19:41Z</time></trkpt><trkpt lat="43.31095004206229" lon="10.501855892359295"><ele>2.0</ele><time>2026-04-15T16:19:45Z</time></trkpt><trkpt lat="43.31087761224498" lon="10.501815408839493"><ele>2.0</ele><time>2026-04-15T16:19:50Z</time></trkpt><trkpt lat="43.31081935111476" lon="10.501778297711235"><ele>1.9999999999999998</ele><time>2026-04-15T16:19:54Z</time></trkpt><trkpt lat="43.310761396233005" lon="10.50174064861646"><ele>2.0</ele><time>2026-04-15T16:19:58Z</time></trkpt><trkpt lat="43.31070138896525" lon="10.501709155064646"><ele>2.0</ele><time>2026-04-15T16:20:02Z</time></trkpt><trkpt lat="43.31063923437082" lon="10.501676231286162"><ele>1.9999999999999998</ele><time>2026-04-15T16:20:06Z</time></trkpt><trkpt lat="43.31056666602334" lon="10.501636252294729"><ele>2.0</ele><time>2026-04-15T16:20:11Z</time></trkpt><trkpt lat="43.31050954506695" lon="10.501599279308145"><ele>2.0</ele><time>2026-04-15T16:20:15Z</time></trkpt><trkpt lat="43.31043728851103" lon="10.501554177105191"><ele>1.857142857142857</ele><time>2026-04-15T16:20:20Z</time></trkpt><trkpt lat="43.31037270437521" lon="10.501517251212261"><ele>1.714285714285714</ele><time>2026-04-15T16:20:24Z</time></trkpt><trkpt lat="43.31031354672416" lon="10.50148121371033"><ele>1.5714285714285714</ele><time>2026-04-15T16:20:28Z</time></trkpt><trkpt lat="43.310251891851564" lon="10.50144166478177"><ele>1.4285714285714284</ele><time>2026-04-15T16:20:32Z</time></trkpt><trkpt lat="43.31018672548684" lon="10.50140705139088"><ele>1.2857142857142856</ele><time>2026-04-15T16:20:36Z</time></trkpt><trkpt lat="43.310122040385664" lon="10.5013683341033"><ele>1.1428571428571428</ele><time>2026-04-15T16:20:40Z</time></trkpt><trkpt lat="43.31005789598821" lon="10.501332065759401"><ele>1.0</ele><time>2026-04-15T16:20:44Z</time></trkpt><trkpt lat="43.309994205695624" lon="10.50129487953923"><ele>1.0</ele><time>2026-04-15T16:20:48Z</time></trkpt><trkpt lat="43.30992777391672" lon="10.501260071067932"><ele>0.9999999999999999</ele><time>2026-04-15T16:20:52Z</time></trkpt><trkpt lat="43.30986278911847" lon="10.501221886976403"><ele>1.0</ele><time>2026-04-15T16:20:56Z</time></trkpt><trkpt lat="43.30979690106435" lon="10.501188079438705"><ele>1.0</ele><time>2026-04-15T16:21:00Z</time></trkpt><trkpt lat="43.309733037634025" lon="10.501155664841516"><ele>0.9999999999999999</ele><time>2026-04-15T16:21:04Z</time></trkpt><trkpt lat="43.30966848295563" lon="10.501119546651697"><ele>1.0</ele><time>2026-04-15T16:21:08Z</time></trkpt><trkpt lat="43.30960404210085" lon="10.50107974279706"><ele>1.0</ele><time>2026-04-15T16:21:12Z</time></trkpt><trkpt lat="43.309541526767156" lon="10.501040673188006"><ele>1.0</ele><time>2026-04-15T16:21:16Z</time></trkpt><trkpt lat="43.30947841311131" lon="10.501007106311773"><ele>0.9999999999999999</ele><time>2026-04-15T16:21:20Z</time></trkpt><trkpt lat="43.30941473837458" lon="10.50097206131037"><ele>1.0</ele><time>2026-04-15T16:21:24Z</time></trkpt><trkpt lat="43.30934924408263" lon="10.500938747522877"><ele>1.0</ele><time>2026-04-15T16:21:28Z</time></trkpt><trkpt lat="43.30928387506039" lon="10.50090104019398"><ele>0.9999999999999999</ele><time>2026-04-15T16:21:32Z</time></trkpt><trkpt lat="43.30921761722551" lon="10.500868469125816"><ele>1.0</ele><time>2026-04-15T16:21:36Z</time></trkpt><trkpt lat="43.30914994662197" lon="10.500837067830092"><ele>1.0</ele><time>2026-04-15T16:21:40Z</time></trkpt><trkpt lat="43.30908862539745" lon="10.500792400344507"><ele>1.0</ele><time>2026-04-15T16:21:44Z</time></trkpt><trkpt lat="43.30902237847977" lon="10.500765044226737"><ele>0.9999999999999999</ele><time>2026-04-15T16:21:48Z</time></trkpt><trkpt lat="43.30895875460482" lon="10.500724435223816"><ele>1.0</ele><time>2026-04-15T16:21:52Z</time></trkpt><trkpt lat="43.30889509483407" lon="10.500685544368833"><ele>1.0</ele><time>2026-04-15T16:21:56Z</time></trkpt><trkpt lat="43.308829864222155" lon="10.500648336788906"><ele>0.9999999999999999</ele><time>2026-04-15T16:22:00Z</time></trkpt><trkpt lat="43.3087632713162" lon="10.500610555697733"><ele>1.0</ele><time>2026-04-15T16:22:04Z</time></trkpt><trkpt lat="43.308698778858485" lon="10.500571246035063"><ele>1.0</ele><time>2026-04-15T16:22:08Z</time></trkpt><trkpt lat="43.308634578468315" lon="10.500531726780283"><ele>1.0</ele><time>2026-04-15T16:22:12Z</time></trkpt><trkpt lat="43.30856737120129" lon="10.500494604843972"><ele>0.9999999999999999</ele><time>2026-04-15T16:22:16Z</time></trkpt><trkpt lat="43.30850417741419" lon="10.500450704581818"><ele>1.0</ele><time>2026-04-15T16:22:20Z</time></trkpt><trkpt lat="43.3084461580127" lon="10.500399083152356"><ele>1.0</ele><time>2026-04-15T16:22:24Z</time></trkpt><trkpt lat="43.30838847740082" lon="10.50034385106727"><ele>0.9999999999999999</ele><time>2026-04-15T16:22:28Z</time></trkpt><trkpt lat="43.30832785025271" lon="10.500301521746579"><ele>1.0</ele><time>2026-04-15T16:22:32Z</time></trkpt><trkpt lat="43.30826894754141" lon="10.500254885284843"><ele>1.0</ele><time>2026-04-15T16:22:36Z</time></trkpt><trkpt lat="43.308211581591706" lon="10.5002066976125"><ele>1.0</ele><time>2026-04-15T16:22:40Z</time></trkpt><trkpt lat="43.30815222636242" lon="10.500156159790237"><ele>0.9999999999999999</ele><time>2026-04-15T16:22:44Z</time></trkpt><trkpt lat="43.30809141475153" lon="10.50011218064499"><ele>1.0</ele><time>2026-04-15T16:22:48Z</time></trkpt><trkpt lat="43.30803358736058" lon="10.500060813662262"><ele>1.0</ele><time>2026-04-15T16:22:52Z</time></trkpt><trkpt lat="43.3079773866736" lon="10.500010214795706"><ele>0.9999999999999999</ele><time>2026-04-15T16:22:56Z</time></trkpt><trkpt lat="43.307920602901035" lon="10.499959191484525"><ele>1.0</ele><time>2026-04-15T16:23:00Z</time></trkpt><trkpt lat="43.30786348375067" lon="10.499906530696753"><ele>1.0</ele><time>2026-04-15T16:23:04Z</time></trkpt><trkpt lat="43.30780540225114" lon="10.4998527700393"><ele>1.0</ele><time>2026-04-15T16:23:08Z</time></trkpt><trkpt lat="43.30774602383413" lon="10.49980094840574"><ele>0.9999999999999999</ele><time>2026-04-15T16:23:12Z</time></trkpt><trkpt lat="43.30768478132148" lon="10.499747183589804"><ele>1.0</ele><time>2026-04-15T16:23:16Z</time></trkpt><trkpt lat="43.30762690937885" lon="10.49969845641261"><ele>1.0</ele><time>2026-04-15T16:23:20Z</time></trkpt><trkpt lat="43.30757290773334" lon="10.499648393456331"><ele>0.9999999999999999</ele><time>2026-04-15T16:23:24Z</time></trkpt><trkpt lat="43.30751423355888" lon="10.49960490740853"><ele>1.0</ele><time>2026-04-15T16:23:28Z</time></trkpt><trkpt lat="43.30745601341406" lon="10.499555824810402"><ele>1.0</ele><time>2026-04-15T16:23:32Z</time></trkpt><trkpt lat="43.30739994042143" lon="10.499504648444187"><ele>1.0</ele><time>2026-04-15T16:23:36Z</time></trkpt><trkpt lat="43.30734050552057" lon="10.499454379758394"><ele>0.9999999999999999</ele><time>2026-04-15T16:23:40Z</time></trkpt><trkpt lat="43.30728715696711" lon="10.499403202092628"><ele>1.0</ele><time>2026-04-15T16:23:44Z</time></trkpt><trkpt lat="43.307225510282514" lon="10.499342066983468"><ele>1.0</ele><time>2026-04-15T16:23:49Z</time></trkpt><trkpt lat="43.307163668455274" lon="10.4992947473045"><ele>0.9999999999999999</ele><time>2026-04-15T16:23:53Z</time></trkpt><trkpt lat="43.30709781622737" lon="10.499251569263947"><ele>1.0</ele><time>2026-04-15T16:23:57Z</time></trkpt><trkpt lat="43.30703883973113" lon="10.499208497547388"><ele>1.0</ele><time>2026-04-15T16:24:01Z</time></trkpt><trkpt lat="43.30697632774275" lon="10.499150837649738"><ele>1.0</ele><time>2026-04-15T16:24:05Z</time></trkpt><trkpt lat="43.30691442964671" lon="10.499095399270432"><ele>0.9999999999999999</ele><time>2026-04-15T16:24:09Z</time></trkpt><trkpt lat="43.3068584766471" lon="10.499034364208317"><ele>1.0</ele><time>2026-04-15T16:24:13Z</time></trkpt><trkpt lat="43.30680002315824" lon="10.498976966920853"><ele>1.0</ele><time>2026-04-15T16:24:17Z</time></trkpt><trkpt lat="43.306743144794694" lon="10.49891747525024"><ele>0.9999999999999999</ele><time>2026-04-15T16:24:21Z</time></trkpt><trkpt lat="43.30668154382196" lon="10.498867991066165"><ele>1.0</ele><time>2026-04-15T16:24:25Z</time></trkpt><trkpt lat="43.3066234207403" lon="10.498822308463104"><ele>1.0</ele><time>2026-04-15T16:24:29Z</time></trkpt><trkpt lat="43.30656246477355" lon="10.498779158938135"><ele>1.1428571428571428</ele><time>2026-04-15T16:24:33Z</time></trkpt><trkpt lat="43.30650264370782" lon="10.498730370466644"><ele>1.2857142857142856</ele><time>2026-04-15T16:24:37Z</time></trkpt><trkpt lat="43.306438716244216" lon="10.498691170375473"><ele>1.4285714285714284</ele><time>2026-04-15T16:24:41Z</time></trkpt><trkpt lat="43.30637901959365" lon="10.498636010829188"><ele>1.5714285714285714</ele><time>2026-04-15T16:24:45Z</time></trkpt><trkpt lat="43.30632053144548" lon="10.498590563877121"><ele>1.714285714285714</ele><time>2026-04-15T16:24:49Z</time></trkpt><trkpt lat="43.306259848124824" lon="10.498546981076625"><ele>1.857142857142857</ele><time>2026-04-15T16:24:53Z</time></trkpt><trkpt lat="43.306201802149936" lon="10.49849216311529"><ele>2.0</ele><time>2026-04-15T16:24:57Z</time></trkpt><trkpt lat="43.30614227592463" lon="10.498436936225328"><ele>2.142857142857143</ele><time>2026-04-15T16:25:01Z</time></trkpt><trkpt lat="43.30608308310348" lon="10.498389620547554"><ele>2.2857142857142856</ele><time>2026-04-15T16:25:05Z</time></trkpt><trkpt lat="43.30602466878702" lon="10.498338152292284"><ele>2.4285714285714284</ele><time>2026-04-15T16:25:09Z</time></trkpt><trkpt lat="43.30596312125973" lon="10.49828822467948"><ele>2.571428571428571</ele><time>2026-04-15T16:25:13Z</time></trkpt><trkpt lat="43.30590687074124" lon="10.498233313064846"><ele>2.7142857142857144</ele><time>2026-04-15T16:25:17Z</time></trkpt><trkpt lat="43.30584599245687" lon="10.498183266572592"><ele>2.8571428571428568</ele><time>2026-04-15T16:25:21Z</time></trkpt><trkpt lat="43.30579118644621" lon="10.498132090084438"><ele>3.0</ele><time>2026-04-15T16:25:25Z</time></trkpt><trkpt lat="43.305734106138274" lon="10.498088465573444"><ele>2.9999999999999996</ele><time>2026-04-15T16:25:29Z</time></trkpt><trkpt lat="43.30566791466952" lon="10.498048143183613"><ele>3.0</ele><time>2026-04-15T16:25:33Z</time></trkpt><trkpt lat="43.30560865508418" lon="10.498011640110098"><ele>3.0</ele><time>2026-04-15T16:25:37Z</time></trkpt><trkpt lat="43.30554891350624" lon="10.497963050302829"><ele>3.0</ele><time>2026-04-15T16:25:41Z</time></trkpt><trkpt lat="43.30549157936814" lon="10.497911213695355"><ele>3.0</ele><time>2026-04-15T16:25:45Z</time></trkpt><trkpt lat="43.30543210554817" lon="10.497845531761431"><ele>2.9999999999999996</ele><time>2026-04-15T16:25:49Z</time></trkpt><trkpt lat="43.30537459833246" lon="10.49779304164514"><ele>3.0</ele><time>2026-04-15T16:25:53Z</time></trkpt><trkpt lat="43.30532296778497" lon="10.497738237901471"><ele>2.8571428571428568</ele><time>2026-04-15T16:25:57Z</time></trkpt><trkpt lat="43.30526337595323" lon="10.497683858609484"><ele>2.7142857142857144</ele><time>2026-04-15T16:26:02Z</time></trkpt><trkpt lat="43.30520469066575" lon="10.49763430653261"><ele>2.571428571428571</ele><time>2026-04-15T16:26:06Z</time></trkpt><trkpt lat="43.305146979128104" lon="10.49758025919764"><ele>2.4285714285714284</ele><time>2026-04-15T16:26:10Z</time></trkpt><trkpt lat="43.30508761950463" lon="10.49752024203682"><ele>2.2857142857142856</ele><time>2026-04-15T16:26:14Z</time></trkpt><trkpt lat="43.305028112721665" lon="10.497459218459186"><ele>2.142857142857143</ele><time>2026-04-15T16:26:18Z</time></trkpt><trkpt lat="43.30497323245952" lon="10.497406318740309"><ele>2.0</ele><time>2026-04-15T16:26:22Z</time></trkpt><trkpt lat="43.304919517072605" lon="10.497351082551035"><ele>2.0</ele><time>2026-04-15T16:26:26Z</time></trkpt><trkpt lat="43.3048695091017" lon="10.497295390281918"><ele>1.9999999999999998</ele><time>2026-04-15T16:26:30Z</time></trkpt><trkpt lat="43.30481701018237" lon="10.497243648961764"><ele>2.0</ele><time>2026-04-15T16:26:34Z</time></trkpt><trkpt lat="43.30475134339679" lon="10.497188206921944"><ele>2.0</ele><time>2026-04-15T16:26:38Z</time></trkpt><trkpt lat="43.30469667095376" lon="10.497125342851042"><ele>1.9999999999999998</ele><time>2026-04-15T16:26:42Z</time></trkpt><trkpt lat="43.304645344920644" lon="10.497067045135042"><ele>2.0</ele><time>2026-04-15T16:26:46Z</time></trkpt><trkpt lat="43.30459551508901" lon="10.497002921819774"><ele>2.0</ele><time>2026-04-15T16:26:50Z</time></trkpt><trkpt lat="43.304545779459495" lon="10.496936734996492"><ele>2.4285714285714284</ele><time>2026-04-15T16:26:54Z</time></trkpt><trkpt lat="43.304498289127736" lon="10.496867515392463"><ele>2.8571428571428568</ele><time>2026-04-15T16:26:58Z</time></trkpt><trkpt lat="43.30444922405753" lon="10.496799657385361"><ele>3.2857142857142856</ele><time>2026-04-15T16:27:02Z</time></trkpt><trkpt lat="43.304395249911664" lon="10.496733276067605"><ele>3.7142857142857144</ele><time>2026-04-15T16:27:06Z</time></trkpt><trkpt lat="43.30433775110861" lon="10.496658926675368"><ele>4.142857142857143</ele><time>2026-04-15T16:27:11Z</time></trkpt><trkpt lat="43.30428847874891" lon="10.496598090675201"><ele>4.571428571428571</ele><time>2026-04-15T16:27:15Z</time></trkpt><trkpt lat="43.30424364425375" lon="10.496526673182494"><ele>5.0</ele><time>2026-04-15T16:27:19Z</time></trkpt><trkpt lat="43.304198190425815" lon="10.496466149277394"><ele>5.0</ele><time>2026-04-15T16:27:23Z</time></trkpt><trkpt lat="43.304146828012186" lon="10.496397805046437"><ele>5.0</ele><time>2026-04-15T16:27:29Z</time></trkpt><trkpt lat="43.304099176343264" lon="10.496317927988635"><ele>5.0</ele><time>2026-04-15T16:27:34Z</time></trkpt><trkpt lat="43.304059778394404" lon="10.496238899650898"><ele>5.0</ele><time>2026-04-15T16:27:38Z</time></trkpt><trkpt lat="43.30401271609649" lon="10.496151047820826"><ele>5.0</ele><time>2026-04-15T16:27:42Z</time></trkpt><trkpt lat="43.303963576169934" lon="10.496078639693598"><ele>5.0</ele><time>2026-04-15T16:27:46Z</time></trkpt><trkpt lat="43.30392106680063" lon="10.495984469265562"><ele>5.0</ele><time>2026-04-15T16:27:50Z</time></trkpt><trkpt lat="43.303885641137015" lon="10.495892413849468"><ele>4.857142857142857</ele><time>2026-04-15T16:27:54Z</time></trkpt><trkpt lat="43.30384609234752" lon="10.495815802757807"><ele>4.714285714285714</ele><time>2026-04-15T16:27:58Z</time></trkpt><trkpt lat="43.303805349114334" lon="10.495737227365163"><ele>4.571428571428571</ele><time>2026-04-15T16:28:02Z</time></trkpt><trkpt lat="43.303770911983136" lon="10.495649713159104"><ele>4.428571428571429</ele><time>2026-04-15T16:28:06Z</time></trkpt><trkpt lat="43.30373612422764" lon="10.495563711946254"><ele>4.285714285714286</ele><time>2026-04-15T16:28:10Z</time></trkpt><trkpt lat="43.30370622649999" lon="10.495479334243697"><ele>4.142857142857142</ele><time>2026-04-15T16:28:14Z</time></trkpt><trkpt lat="43.303681868031624" lon="10.495394375591793"><ele>4.0</ele><time>2026-04-15T16:28:18Z</time></trkpt><trkpt lat="43.30364272228725" lon="10.495310874270979"><ele>3.8571428571428568</ele><time>2026-04-15T16:28:22Z</time></trkpt><trkpt lat="43.30361413144692" lon="10.495227763408275"><ele>3.714285714285714</ele><time>2026-04-15T16:28:26Z</time></trkpt><trkpt lat="43.30359377045851" lon="10.495143645383942"><ele>3.571428571428571</ele><time>2026-04-15T16:28:30Z</time></trkpt><trkpt lat="43.303572367579896" lon="10.495056641384604"><ele>3.4285714285714284</ele><time>2026-04-15T16:28:34Z</time></trkpt><trkpt lat="43.30354257124583" lon="10.494963823153304"><ele>3.2857142857142856</ele><time>2026-04-15T16:28:38Z</time></trkpt><trkpt lat="43.30352249826551" lon="10.49487879226479"><ele>3.1428571428571423</ele><time>2026-04-15T16:28:42Z</time></trkpt><trkpt lat="43.30349829055544" lon="10.494791794156797"><ele>3.0</ele><time>2026-04-15T16:28:46Z</time></trkpt><trkpt lat="43.30348071670091" lon="10.494692291435404"><ele>2.9999999999999996</ele><time>2026-04-15T16:28:50Z</time></trkpt><trkpt lat="43.30346447168373" lon="10.494600556598298"><ele>3.0</ele><time>2026-04-15T16:28:54Z</time></trkpt><trkpt lat="43.30344118458894" lon="10.494507880356686"><ele>3.0</ele><time>2026-04-15T16:28:58Z</time></trkpt><trkpt lat="43.30342258206721" lon="10.494408758860931"><ele>3.0</ele><time>2026-04-15T16:29:03Z</time></trkpt><trkpt lat="43.303404824910395" lon="10.494325601132473"><ele>3.0</ele><time>2026-04-15T16:29:07Z</time></trkpt><trkpt lat="43.30338855382652" lon="10.494227738142635"><ele>2.9999999999999996</ele><time>2026-04-15T16:29:12Z</time></trkpt><trkpt lat="43.303362896807435" lon="10.494139023631188"><ele>3.0</ele><time>2026-04-15T16:29:16Z</time></trkpt><trkpt lat="43.30333881553142" lon="10.494047335140959"><ele>2.8571428571428568</ele><time>2026-04-15T16:29:20Z</time></trkpt><trkpt lat="43.30331985001056" lon="10.493957172406525"><ele>2.7142857142857144</ele><time>2026-04-15T16:29:24Z</time></trkpt><trkpt lat="43.30331061044205" lon="10.493865433618495"><ele>2.571428571428571</ele><time>2026-04-15T16:29:28Z</time></trkpt><trkpt lat="43.30337219156559" lon="10.49380020982796"><ele>2.4285714285714284</ele><time>2026-04-15T16:29:33Z</time></trkpt><trkpt lat="43.303424893520734" lon="10.493732458662844"><ele>2.2857142857142856</ele><time>2026-04-15T16:29:38Z</time></trkpt><trkpt lat="43.30347826834319" lon="10.493673847451548"><ele>2.142857142857143</ele><time>2026-04-15T16:29:42Z</time></trkpt><trkpt lat="43.30353337461576" lon="10.493605917331854"><ele>2.0</ele><time>2026-04-15T16:29:47Z</time></trkpt><trkpt lat="43.30359776813028" lon="10.493545125346847"><ele>1.857142857142857</ele><time>2026-04-15T16:29:52Z</time></trkpt><trkpt lat="43.30366638178112" lon="10.493507656579427"><ele>1.714285714285714</ele><time>2026-04-15T16:29:56Z</time></trkpt><trkpt lat="43.303720673361056" lon="10.493460132718232"><ele>1.5714285714285714</ele><time>2026-04-15T16:30:00Z</time></trkpt><trkpt lat="43.30378112986893" lon="10.493415205887697"><ele>1.4285714285714284</ele><time>2026-04-15T16:30:04Z</time></trkpt><trkpt lat="43.30383663740191" lon="10.49336421041304"><ele>1.2857142857142856</ele><time>2026-04-15T16:30:08Z</time></trkpt><trkpt lat="43.3038948739297" lon="10.493320277087454"><ele>1.1428571428571428</ele><time>2026-04-15T16:30:12Z</time></trkpt><trkpt lat="43.30395162505023" lon="10.493275108647678"><ele>1.0</ele><time>2026-04-15T16:30:16Z</time></trkpt><trkpt lat="43.30401200752008" lon="10.493220512173181"><ele>0.8571428571428571</ele><time>2026-04-15T16:30:20Z</time></trkpt><trkpt lat="43.30407323150044" lon="10.49318282798179"><ele>0.7142857142857142</ele><time>2026-04-15T16:30:24Z</time></trkpt><trkpt lat="43.30412862435631" lon="10.49313860768901"><ele>0.5714285714285714</ele><time>2026-04-15T16:30:28Z</time></trkpt><trkpt lat="43.304187142039346" lon="10.493098780177785"><ele>0.42857142857142855</ele><time>2026-04-15T16:30:32Z</time></trkpt><trkpt lat="43.30424566241358" lon="10.493048168385009"><ele>0.2857142857142857</ele><time>2026-04-15T16:30:36Z</time></trkpt><trkpt lat="43.30430396897152" lon="10.492990611391013"><ele>0.14285714285714285</ele><time>2026-04-15T16:30:40Z</time></trkpt><trkpt lat="43.30436498596859" lon="10.492933783448047"><ele>0.0</ele><time>2026-04-15T16:30:44Z</time></trkpt><trkpt lat="43.30442309320067" lon="10.492880576417079"><ele>0.0</ele><time>2026-04-15T16:30:48Z</time></trkpt><trkpt lat="43.30448264660873" lon="10.492835015598398"><ele>0.0</ele><time>2026-04-15T16:30:52Z</time></trkpt><trkpt lat="43.304541923252344" lon="10.49279854278286"><ele>0.0</ele><time>2026-04-15T16:30:56Z</time></trkpt><trkpt lat="43.304601437274265" lon="10.492759821643913"><ele>0.0</ele><time>2026-04-15T16:31:00Z</time></trkpt><trkpt lat="43.304663122074196" lon="10.492711656156155"><ele>0.0</ele><time>2026-04-15T16:31:04Z</time></trkpt><trkpt lat="43.30472127461656" lon="10.492658760535484"><ele>0.0</ele><time>2026-04-15T16:31:08Z</time></trkpt><trkpt lat="43.30478166995488" lon="10.492605361517821"><ele>0.0</ele><time>2026-04-15T16:31:12Z</time></trkpt><trkpt lat="43.304842127782635" lon="10.49255732487751"><ele>0.0</ele><time>2026-04-15T16:31:16Z</time></trkpt><trkpt lat="43.30490472800042" lon="10.492508142414101"><ele>0.0</ele><time>2026-04-15T16:31:20Z</time></trkpt><trkpt lat="43.30496767332528" lon="10.492455240586734"><ele>0.0</ele><time>2026-04-15T16:31:24Z</time></trkpt><trkpt lat="43.30502659816991" lon="10.492406369801838"><ele>0.0</ele><time>2026-04-15T16:31:28Z</time></trkpt><trkpt lat="43.3050902534821" lon="10.492353329339702"><ele>0.0</ele><time>2026-04-15T16:31:32Z</time></trkpt><trkpt lat="43.30515078632971" lon="10.492293362889239"><ele>0.0</ele><time>2026-04-15T16:31:36Z</time></trkpt><trkpt lat="43.30520726143556" lon="10.492232546676073"><ele>0.0</ele><time>2026-04-15T16:31:40Z</time></trkpt><trkpt lat="43.30526378403985" lon="10.492178869972285"><ele>0.0</ele><time>2026-04-15T16:31:44Z</time></trkpt><trkpt lat="43.305322100218696" lon="10.492124977843364"><ele>0.0</ele><time>2026-04-15T16:31:48Z</time></trkpt><trkpt lat="43.30537765885866" lon="10.492068484295455"><ele>0.0</ele><time>2026-04-15T16:31:52Z</time></trkpt><trkpt lat="43.3054357850941" lon="10.492023843840087"><ele>0.0</ele><time>2026-04-15T16:31:56Z</time></trkpt><trkpt lat="43.30549278335126" lon="10.49195874598769"><ele>0.0</ele><time>2026-04-15T16:32:00Z</time></trkpt><trkpt lat="43.305550776383164" lon="10.49189577998582"><ele>0.0</ele><time>2026-04-15T16:32:04Z</time></trkpt><trkpt lat="43.30560601523221" lon="10.491843517295724"><ele>0.0</ele><time>2026-04-15T16:32:08Z</time></trkpt><trkpt lat="43.3056633224115" lon="10.49178917794136"><ele>0.14285714285714285</ele><time>2026-04-15T16:32:12Z</time></trkpt><trkpt lat="43.30571911036978" lon="10.491738960274098"><ele>0.2857142857142857</ele><time>2026-04-15T16:32:16Z</time></trkpt><trkpt lat="43.30577767501777" lon="10.491684076722743"><ele>0.42857142857142855</ele><time>2026-04-15T16:32:20Z</time></trkpt><trkpt lat="43.30583853934239" lon="10.49163568195025"><ele>0.5714285714285714</ele><time>2026-04-15T16:32:24Z</time></trkpt><trkpt lat="43.305895501023464" lon="10.49158391829986"><ele>0.7142857142857142</ele><time>2026-04-15T16:32:28Z</time></trkpt><trkpt lat="43.30595246766794" lon="10.491527577841296"><ele>0.8571428571428571</ele><time>2026-04-15T16:32:32Z</time></trkpt><trkpt lat="43.30601043058301" lon="10.491482738580245"><ele>1.0</ele><time>2026-04-15T16:32:36Z</time></trkpt><trkpt lat="43.30606495124704" lon="10.491438286279116"><ele>1.0</ele><time>2026-04-15T16:32:40Z</time></trkpt><trkpt lat="43.30612634469634" lon="10.491398937721948"><ele>0.9999999999999999</ele><time>2026-04-15T16:32:44Z</time></trkpt><trkpt lat="43.30618309188199" lon="10.491355293406494"><ele>1.0</ele><time>2026-04-15T16:32:48Z</time></trkpt><trkpt lat="43.30624452510715" lon="10.491309512523708"><ele>1.0</ele><time>2026-04-15T16:32:52Z</time></trkpt><trkpt lat="43.30630458756181" lon="10.491254239533266"><ele>0.9999999999999999</ele><time>2026-04-15T16:32:56Z</time></trkpt><trkpt lat="43.30636281384915" lon="10.491207351182876"><ele>1.0</ele><time>2026-04-15T16:33:00Z</time></trkpt><trkpt lat="43.30642417475044" lon="10.491155856570057"><ele>1.0</ele><time>2026-04-15T16:33:04Z</time></trkpt><trkpt lat="43.306483466159996" lon="10.491097589547762"><ele>1.2857142857142856</ele><time>2026-04-15T16:33:08Z</time></trkpt><trkpt lat="43.30654613864874" lon="10.491044105944988"><ele>1.5714285714285712</ele><time>2026-04-15T16:33:12Z</time></trkpt><trkpt lat="43.306603995528185" lon="10.490988112750626"><ele>1.857142857142857</ele><time>2026-04-15T16:33:16Z</time></trkpt><trkpt lat="43.306663621207555" lon="10.49093275609547"><ele>2.142857142857143</ele><time>2026-04-15T16:33:20Z</time></trkpt><trkpt lat="43.30672384539183" lon="10.490886061795864"><ele>2.4285714285714284</ele><time>2026-04-15T16:33:24Z</time></trkpt><trkpt lat="43.30678564535066" lon="10.490839209363303"><ele>2.714285714285714</ele><time>2026-04-15T16:33:28Z</time></trkpt><trkpt lat="43.306844019152415" lon="10.4907835463796"><ele>3.0</ele><time>2026-04-15T16:33:32Z</time></trkpt><trkpt lat="43.30690934274543" lon="10.490737721707506"><ele>2.9999999999999996</ele><time>2026-04-15T16:33:36Z</time></trkpt><trkpt lat="43.30697049128413" lon="10.490681250387425"><ele>3.0</ele><time>2026-04-15T16:33:40Z</time></trkpt><trkpt lat="43.30702803071283" lon="10.490624504947288"><ele>3.0</ele><time>2026-04-15T16:33:44Z</time></trkpt><trkpt lat="43.30708852154768" lon="10.490576338881116"><ele>3.0</ele><time>2026-04-15T16:33:48Z</time></trkpt><trkpt lat="43.307146387152315" lon="10.490518500708955"><ele>3.0</ele><time>2026-04-15T16:33:52Z</time></trkpt><trkpt lat="43.30720392514791" lon="10.490467744504304"><ele>2.9999999999999996</ele><time>2026-04-15T16:33:56Z</time></trkpt><trkpt lat="43.30725773811581" lon="10.490416130226187"><ele>3.0</ele><time>2026-04-15T16:34:00Z</time></trkpt><trkpt lat="43.30731591415993" lon="10.490369389243986"><ele>3.1428571428571423</ele><time>2026-04-15T16:34:04Z</time></trkpt><trkpt lat="43.3073731787726" lon="10.490317273479413"><ele>3.2857142857142856</ele><time>2026-04-15T16:34:08Z</time></trkpt><trkpt lat="43.307432808806446" lon="10.490265789501155"><ele>3.4285714285714284</ele><time>2026-04-15T16:34:12Z</time></trkpt><trkpt lat="43.307493217416635" lon="10.490210115652662"><ele>3.571428571428571</ele><time>2026-04-15T16:34:16Z</time></trkpt><trkpt lat="43.30755092569329" lon="10.490150636178344"><ele>3.714285714285714</ele><time>2026-04-15T16:34:20Z</time></trkpt><trkpt lat="43.30760936234785" lon="10.490095760071059"><ele>3.8571428571428568</ele><time>2026-04-15T16:34:24Z</time></trkpt><trkpt lat="43.30767204371881" lon="10.490042877066873"><ele>4.0</ele><time>2026-04-15T16:34:28Z</time></trkpt><trkpt lat="43.30773169867633" lon="10.489987744554298"><ele>4.0</ele><time>2026-04-15T16:34:32Z</time></trkpt><trkpt lat="43.307789004047216" lon="10.48993675348442"><ele>3.9999999999999996</ele><time>2026-04-15T16:34:36Z</time></trkpt><trkpt lat="43.307846556404606" lon="10.489886457705884"><ele>4.0</ele><time>2026-04-15T16:34:40Z</time></trkpt><trkpt lat="43.30789902711221" lon="10.489817228371281"><ele>4.0</ele><time>2026-04-15T16:34:44Z</time></trkpt><trkpt lat="43.30795752760046" lon="10.489759336444164"><ele>3.9999999999999996</ele><time>2026-04-15T16:34:48Z</time></trkpt><trkpt lat="43.308017761567626" lon="10.48970167283354"><ele>4.0</ele><time>2026-04-15T16:34:52Z</time></trkpt><trkpt lat="43.308072630481774" lon="10.48964497880685"><ele>4.0</ele><time>2026-04-15T16:34:56Z</time></trkpt><trkpt lat="43.30812664251415" lon="10.489583533036482"><ele>3.571428571428571</ele><time>2026-04-15T16:35:00Z</time></trkpt><trkpt lat="43.30818585508698" lon="10.489530454242741"><ele>3.1428571428571423</ele><time>2026-04-15T16:35:04Z</time></trkpt><trkpt lat="43.30824196605821" lon="10.48948150894092"><ele>2.714285714285714</ele><time>2026-04-15T16:35:08Z</time></trkpt><trkpt lat="43.30830500933299" lon="10.48943152581435"><ele>2.2857142857142856</ele><time>2026-04-15T16:35:12Z</time></trkpt><trkpt lat="43.308365369050094" lon="10.489385495377496"><ele>1.857142857142857</ele><time>2026-04-15T16:35:16Z</time></trkpt><trkpt lat="43.30842400208127" lon="10.489352001507937"><ele>1.4285714285714284</ele><time>2026-04-15T16:35:20Z</time></trkpt><trkpt lat="43.30848775023711" lon="10.489297354909842"><ele>1.0</ele><time>2026-04-15T16:35:24Z</time></trkpt><trkpt lat="43.30855319867006" lon="10.48924666099133"><ele>1.0</ele><time>2026-04-15T16:35:28Z</time></trkpt><trkpt lat="43.30861630487039" lon="10.489201119942399"><ele>0.9999999999999999</ele><time>2026-04-15T16:35:32Z</time></trkpt><trkpt lat="43.30867644823495" lon="10.48914552087527"><ele>1.0</ele><time>2026-04-15T16:35:36Z</time></trkpt><trkpt lat="43.30872739220418" lon="10.48908366326529"><ele>1.0</ele><time>2026-04-15T16:35:40Z</time></trkpt><trkpt lat="43.30878400206579" lon="10.489028443523996"><ele>0.9999999999999999</ele><time>2026-04-15T16:35:44Z</time></trkpt><trkpt lat="43.30883796957878" lon="10.488973351687473"><ele>1.0</ele><time>2026-04-15T16:35:48Z</time></trkpt><trkpt lat="43.30888419988133" lon="10.488903333960282"><ele>1.0</ele><time>2026-04-15T16:35:52Z</time></trkpt><trkpt lat="43.3089327488591" lon="10.48883973518913"><ele>1.0</ele><time>2026-04-15T16:35:56Z</time></trkpt><trkpt lat="43.30899339616447" lon="10.488793612998332"><ele>0.9999999999999999</ele><time>2026-04-15T16:36:00Z</time></trkpt><trkpt lat="43.30905527898156" lon="10.488745241587669"><ele>1.0</ele><time>2026-04-15T16:36:04Z</time></trkpt><trkpt lat="43.30911501723103" lon="10.48869629086224"><ele>1.0</ele><time>2026-04-15T16:36:08Z</time></trkpt><trkpt lat="43.30917567226732" lon="10.48865068533216"><ele>0.9999999999999999</ele><time>2026-04-15T16:36:12Z</time></trkpt><trkpt lat="43.309235034488125" lon="10.488602171368749"><ele>1.0</ele><time>2026-04-15T16:36:16Z</time></trkpt><trkpt lat="43.30929349252369" lon="10.488550276945878"><ele>1.0</ele><time>2026-04-15T16:36:20Z</time></trkpt><trkpt lat="43.309358291976196" lon="10.488518261452093"><ele>0.8571428571428571</ele><time>2026-04-15T16:36:24Z</time></trkpt><trkpt lat="43.30942050834071" lon="10.48847227455651"><ele>0.7142857142857142</ele><time>2026-04-15T16:36:28Z</time></trkpt><trkpt lat="43.30948252535056" lon="10.488424676146192"><ele>0.5714285714285714</ele><time>2026-04-15T16:36:32Z</time></trkpt><trkpt lat="43.309535821725355" lon="10.488362552913554"><ele>0.42857142857142855</ele><time>2026-04-15T16:36:36Z</time></trkpt><trkpt lat="43.30959381128128" lon="10.488312654301003"><ele>0.2857142857142857</ele><time>2026-04-15T16:36:40Z</time></trkpt><trkpt lat="43.30964227901174" lon="10.488245242978492"><ele>0.14285714285714285</ele><time>2026-04-15T16:36:44Z</time></trkpt><trkpt lat="43.309703876192785" lon="10.488202710489883"><ele>0.0</ele><time>2026-04-15T16:36:48Z</time></trkpt><trkpt lat="43.30976339430736" lon="10.488155707253803"><ele>0.14285714285714285</ele><time>2026-04-15T16:36:52Z</time></trkpt><trkpt lat="43.30982215728457" lon="10.488103515954002"><ele>0.2857142857142857</ele><time>2026-04-15T16:36:56Z</time></trkpt><trkpt lat="43.30988019430145" lon="10.488054272711151"><ele>0.42857142857142855</ele><time>2026-04-15T16:37:00Z</time></trkpt><trkpt lat="43.309940319237334" lon="10.488007778418154"><ele>0.5714285714285714</ele><time>2026-04-15T16:37:04Z</time></trkpt><trkpt lat="43.30999664351677" lon="10.487949024297883"><ele>0.7142857142857142</ele><time>2026-04-15T16:37:08Z</time></trkpt><trkpt lat="43.31005382997103" lon="10.487884589771824"><ele>0.8571428571428571</ele><time>2026-04-15T16:37:12Z</time></trkpt><trkpt lat="43.310113321939404" lon="10.487839369601813"><ele>1.0</ele><time>2026-04-15T16:37:16Z</time></trkpt><trkpt lat="43.31017052586169" lon="10.487792068486867"><ele>1.0</ele><time>2026-04-15T16:37:20Z</time></trkpt><trkpt lat="43.310232578647266" lon="10.487746258336522"><ele>0.9999999999999999</ele><time>2026-04-15T16:37:24Z</time></trkpt><trkpt lat="43.31029047093859" lon="10.48769757865083"><ele>1.0</ele><time>2026-04-15T16:37:28Z</time></trkpt><trkpt lat="43.310347206821575" lon="10.487645216524"><ele>1.0</ele><time>2026-04-15T16:37:32Z</time></trkpt><trkpt lat="43.31040526745848" lon="10.487588679915103"><ele>0.9999999999999999</ele><time>2026-04-15T16:37:36Z</time></trkpt><trkpt lat="43.31046430443163" lon="10.487540628845183"><ele>1.0</ele><time>2026-04-15T16:37:40Z</time></trkpt><trkpt lat="43.310523742733665" lon="10.487489999807858"><ele>1.0</ele><time>2026-04-15T16:37:44Z</time></trkpt><trkpt lat="43.31058357273166" lon="10.487436144325061"><ele>0.8571428571428571</ele><time>2026-04-15T16:37:48Z</time></trkpt><trkpt lat="43.31064581276023" lon="10.487391979606619"><ele>0.7142857142857142</ele><time>2026-04-15T16:37:52Z</time></trkpt><trkpt lat="43.31070243147953" lon="10.48733950078382"><ele>0.5714285714285714</ele><time>2026-04-15T16:37:56Z</time></trkpt><trkpt lat="43.31076175110121" lon="10.487290532940843"><ele>0.42857142857142855</ele><time>2026-04-15T16:38:00Z</time></trkpt><trkpt lat="43.31082087554866" lon="10.487246509173618"><ele>0.2857142857142857</ele><time>2026-04-15T16:38:04Z</time></trkpt><trkpt lat="43.310882286445505" lon="10.48720127262865"><ele>0.14285714285714285</ele><time>2026-04-15T16:38:08Z</time></trkpt><trkpt lat="43.31095152756866" lon="10.487180778137654"><ele>0.0</ele><time>2026-04-15T16:38:12Z</time></trkpt><trkpt lat="43.31101084105314" lon="10.487142648786694"><ele>0.0</ele><time>2026-04-15T16:38:16Z</time></trkpt><trkpt lat="43.31108168597462" lon="10.487121213102943"><ele>0.0</ele><time>2026-04-15T16:38:20Z</time></trkpt><trkpt lat="43.311151357962586" lon="10.487090437212977"><ele>0.0</ele><time>2026-04-15T16:38:24Z</time></trkpt><trkpt lat="43.31122328476222" lon="10.487070275756599"><ele>0.0</ele><time>2026-04-15T16:38:28Z</time></trkpt><trkpt lat="43.311289386935684" lon="10.487073211284203"><ele>0.0</ele><time>2026-04-15T16:38:32Z</time></trkpt><trkpt lat="43.31135382309316" lon="10.487085766349725"><ele>0.0</ele><time>2026-04-15T16:38:36Z</time></trkpt><trkpt lat="43.311417206446116" lon="10.487119298926517"><ele>0.0</ele><time>2026-04-15T16:38:40Z</time></trkpt><trkpt lat="43.31147536338415" lon="10.487170346868268"><ele>0.0</ele><time>2026-04-15T16:38:44Z</time></trkpt><trkpt lat="43.31151881514654" lon="10.487240935374436"><ele>0.0</ele><time>2026-04-15T16:38:48Z</time></trkpt><trkpt lat="43.3115634508751" lon="10.487309668788617"><ele>0.0</ele><time>2026-04-15T16:38:52Z</time></trkpt><trkpt lat="43.3116137508568" lon="10.487368011312888"><ele>0.0</ele><time>2026-04-15T16:38:56Z</time></trkpt><trkpt lat="43.31166202956948" lon="10.48743744556163"><ele>0.0</ele><time>2026-04-15T16:39:00Z</time></trkpt><trkpt lat="43.31171243024146" lon="10.487508478197666"><ele>0.0</ele><time>2026-04-15T16:39:04Z</time></trkpt><trkpt lat="43.31175316265073" lon="10.487586212732326"><ele>0.0</ele><time>2026-04-15T16:39:08Z</time></trkpt><trkpt lat="43.31179993555057" lon="10.487656453415028"><ele>0.0</ele><time>2026-04-15T16:39:12Z</time></trkpt><trkpt lat="43.31183921007826" lon="10.487733073053093"><ele>0.0</ele><time>2026-04-15T16:39:16Z</time></trkpt><trkpt lat="43.31188021954936" lon="10.487809027671133"><ele>0.0</ele><time>2026-04-15T16:39:20Z</time></trkpt><trkpt lat="43.31191799637619" lon="10.487886526921026"><ele>0.0</ele><time>2026-04-15T16:39:24Z</time></trkpt><trkpt lat="43.31196253062064" lon="10.487957995691234"><ele>0.0</ele><time>2026-04-15T16:39:28Z</time></trkpt><trkpt lat="43.31200610075788" lon="10.488029743604109"><ele>0.0</ele><time>2026-04-15T16:39:32Z</time></trkpt><trkpt lat="43.312049243941374" lon="10.48809510171022"><ele>0.0</ele><time>2026-04-15T16:39:36Z</time></trkpt><trkpt lat="43.31209519844308" lon="10.488163269975043"><ele>0.0</ele><time>2026-04-15T16:39:40Z</time></trkpt><trkpt lat="43.31213504304728" lon="10.488242442283415"><ele>0.0</ele><time>2026-04-15T16:39:44Z</time></trkpt><trkpt lat="43.312179885385355" lon="10.488319069624469"><ele>0.0</ele><time>2026-04-15T16:39:48Z</time></trkpt><trkpt lat="43.312222316394354" lon="10.488398724531303"><ele>0.0</ele><time>2026-04-15T16:39:52Z</time></trkpt><trkpt lat="43.312265411135044" lon="10.48847548942738"><ele>0.0</ele><time>2026-04-15T16:39:56Z</time></trkpt><trkpt lat="43.3123073720929" lon="10.488554174733093"><ele>0.0</ele><time>2026-04-15T16:40:00Z</time></trkpt><trkpt lat="43.312354174555765" lon="10.488626199495533"><ele>0.0</ele><time>2026-04-15T16:40:04Z</time></trkpt><trkpt lat="43.312400192127235" lon="10.488697560380995"><ele>-0.14285714285714285</ele><time>2026-04-15T16:40:08Z</time></trkpt><trkpt lat="43.31244306044823" lon="10.488766055326488"><ele>-0.2857142857142857</ele><time>2026-04-15T16:40:12Z</time></trkpt><trkpt lat="43.31248020126285" lon="10.488839542864389"><ele>-0.42857142857142855</ele><time>2026-04-15T16:40:16Z</time></trkpt><trkpt lat="43.31252904622389" lon="10.48890674540678"><ele>-0.5714285714285714</ele><time>2026-04-15T16:40:20Z</time></trkpt><trkpt lat="43.31256951524038" lon="10.488979418362586"><ele>-0.7142857142857142</ele><time>2026-04-15T16:40:24Z</time></trkpt><trkpt lat="43.31261301925592" lon="10.489054569028221"><ele>-0.8571428571428571</ele><time>2026-04-15T16:40:28Z</time></trkpt><trkpt lat="43.31265482532675" lon="10.489128557566737"><ele>-1.0</ele><time>2026-04-15T16:40:32Z</time></trkpt><trkpt lat="43.31269958497279" lon="10.489203216240838"><ele>-1.0</ele><time>2026-04-15T16:40:36Z</time></trkpt><trkpt lat="43.31274337329319" lon="10.48927574063664"><ele>-0.9999999999999999</ele><time>2026-04-15T16:40:40Z</time></trkpt><trkpt lat="43.31279107922614" lon="10.489347402433934"><ele>-1.0</ele><time>2026-04-15T16:40:44Z</time></trkpt><trkpt lat="43.312836961792854" lon="10.489418238914407"><ele>-1.0</ele><time>2026-04-15T16:40:48Z</time></trkpt><trkpt lat="43.31287788362427" lon="10.489497269645069"><ele>-0.9999999999999999</ele><time>2026-04-15T16:40:52Z</time></trkpt><trkpt lat="43.31291727944001" lon="10.489576586124587"><ele>-1.0</ele><time>2026-04-15T16:40:56Z</time></trkpt><trkpt lat="43.312958885130335" lon="10.489649310572254"><ele>-1.0</ele><time>2026-04-15T16:41:00Z</time></trkpt><trkpt lat="43.31300232328902" lon="10.489720338123236"><ele>-1.0</ele><time>2026-04-15T16:41:04Z</time></trkpt><trkpt lat="43.313050547865814" lon="10.4897904056626"><ele>-0.9999999999999999</ele><time>2026-04-15T16:41:08Z</time></trkpt><trkpt lat="43.313097249384" lon="10.489865001243391"><ele>-1.0</ele><time>2026-04-15T16:41:12Z</time></trkpt><trkpt lat="43.31313929363381" lon="10.489940557241571"><ele>-1.0</ele><time>2026-04-15T16:41:16Z</time></trkpt><trkpt lat="43.313181377568114" lon="10.490013540531628"><ele>-0.9999999999999999</ele><time>2026-04-15T16:41:20Z</time></trkpt><trkpt lat="43.31322431472809" lon="10.49008911260989"><ele>-1.0</ele><time>2026-04-15T16:41:24Z</time></trkpt><trkpt lat="43.313266319379984" lon="10.490159212031548"><ele>-1.0</ele><time>2026-04-15T16:41:28Z</time></trkpt><trkpt lat="43.31330866782117" lon="10.490227676619114"><ele>-0.5714285714285714</ele><time>2026-04-15T16:41:32Z</time></trkpt><trkpt lat="43.31334700704485" lon="10.49030342324786"><ele>-0.1428571428571428</ele><time>2026-04-15T16:41:36Z</time></trkpt><trkpt lat="43.31339353600583" lon="10.490373481161848"><ele>0.2857142857142857</ele><time>2026-04-15T16:41:40Z</time></trkpt><trkpt lat="43.31343986974214" lon="10.49043908769344"><ele>0.7142857142857142</ele><time>2026-04-15T16:41:44Z</time></trkpt><trkpt lat="43.3134837620197" lon="10.490507706395356"><ele>1.1428571428571428</ele><time>2026-04-15T16:41:48Z</time></trkpt><trkpt lat="43.313520656761256" lon="10.490579261572346"><ele>1.5714285714285714</ele><time>2026-04-15T16:41:52Z</time></trkpt><trkpt lat="43.313556397049446" lon="10.49065282514171"><ele>2.0</ele><time>2026-04-15T16:41:56Z</time></trkpt><trkpt lat="43.31359701039736" lon="10.490725935049001"><ele>2.142857142857143</ele><time>2026-04-15T16:42:00Z</time></trkpt><trkpt lat="43.31363975482629" lon="10.490793423219547"><ele>2.2857142857142856</ele><time>2026-04-15T16:42:04Z</time></trkpt><trkpt lat="43.31367846373776" lon="10.490869001647633"><ele>2.4285714285714284</ele><time>2026-04-15T16:42:08Z</time></trkpt><trkpt lat="43.31371710067262" lon="10.490949668572604"><ele>2.571428571428571</ele><time>2026-04-15T16:42:12Z</time></trkpt><trkpt lat="43.31375994813097" lon="10.491026486539976"><ele>2.7142857142857144</ele><time>2026-04-15T16:42:16Z</time></trkpt><trkpt lat="43.31379860358988" lon="10.491101285063454"><ele>2.8571428571428568</ele><time>2026-04-15T16:42:20Z</time></trkpt><trkpt lat="43.31383782901814" lon="10.491177395318964"><ele>3.0</ele><time>2026-04-15T16:42:24Z</time></trkpt><trkpt lat="43.31388512967686" lon="10.49124396050473"><ele>2.8571428571428568</ele><time>2026-04-15T16:42:28Z</time></trkpt><trkpt lat="43.31392532712745" lon="10.49132087083863"><ele>2.7142857142857144</ele><time>2026-04-15T16:42:32Z</time></trkpt><trkpt lat="43.31397652376676" lon="10.49138752113123"><ele>2.571428571428571</ele><time>2026-04-15T16:42:36Z</time></trkpt><trkpt lat="43.31402194716574" lon="10.491461522939927"><ele>2.4285714285714284</ele><time>2026-04-15T16:42:40Z</time></trkpt><trkpt lat="43.31406624024555" lon="10.491530286966126"><ele>2.2857142857142856</ele><time>2026-04-15T16:42:44Z</time></trkpt><trkpt lat="43.31409872235317" lon="10.4916109804462"><ele>2.142857142857143</ele><time>2026-04-15T16:42:48Z</time></trkpt><trkpt lat="43.31413733121214" lon="10.491683938346304"><ele>2.0</ele><time>2026-04-15T16:42:52Z</time></trkpt><trkpt lat="43.31418549418457" lon="10.491760538604048"><ele>2.0</ele><time>2026-04-15T16:42:56Z</time></trkpt><trkpt lat="43.31423123975333" lon="10.49182082032003"><ele>1.9999999999999998</ele><time>2026-04-15T16:43:00Z</time></trkpt><trkpt lat="43.31427244519055" lon="10.491890209064772"><ele>2.0</ele><time>2026-04-15T16:43:04Z</time></trkpt><trkpt lat="43.31431547440454" lon="10.491955549674252"><ele>2.0</ele><time>2026-04-15T16:43:08Z</time></trkpt><trkpt lat="43.31435825129886" lon="10.492020183268393"><ele>1.9999999999999998</ele><time>2026-04-15T16:43:12Z</time></trkpt><trkpt lat="43.31440177692793" lon="10.492090525665695"><ele>2.0</ele><time>2026-04-15T16:43:16Z</time></trkpt><trkpt lat="43.314445021432064" lon="10.49217034270836"><ele>2.0</ele><time>2026-04-15T16:43:20Z</time></trkpt><trkpt lat="43.31448788994621" lon="10.492247508013024"><ele>2.0</ele><time>2026-04-15T16:43:24Z</time></trkpt><trkpt lat="43.31451980116184" lon="10.492326248285112"><ele>1.9999999999999998</ele><time>2026-04-15T16:43:28Z</time></trkpt><trkpt lat="43.31456172928072" lon="10.492393650214751"><ele>2.0</ele><time>2026-04-15T16:43:32Z</time></trkpt><trkpt lat="43.314607414075006" lon="10.49245852630324"><ele>2.0</ele><time>2026-04-15T16:43:36Z</time></trkpt><trkpt lat="43.31465113977502" lon="10.492533406888036"><ele>1.9999999999999998</ele><time>2026-04-15T16:43:40Z</time></trkpt><trkpt lat="43.31469366229649" lon="10.492612428848972"><ele>2.0</ele><time>2026-04-15T16:43:44Z</time></trkpt><trkpt lat="43.31473662617247" lon="10.492689034079204"><ele>2.0</ele><time>2026-04-15T16:43:48Z</time></trkpt><trkpt lat="43.31477878171538" lon="10.492770235384599"><ele>2.0</ele><time>2026-04-15T16:43:52Z</time></trkpt><trkpt lat="43.314823083384084" lon="10.492851456631525"><ele>1.9999999999999998</ele><time>2026-04-15T16:43:56Z</time></trkpt><trkpt lat="43.31486660113277" lon="10.492927180545568"><ele>2.0</ele><time>2026-04-15T16:44:00Z</time></trkpt><trkpt lat="43.31491749763963" lon="10.492986857579329"><ele>2.0</ele><time>2026-04-15T16:44:04Z</time></trkpt><trkpt lat="43.31495823988253" lon="10.493061075572339"><ele>1.9999999999999998</ele><time>2026-04-15T16:44:08Z</time></trkpt><trkpt lat="43.314996790629046" lon="10.49313622434953"><ele>2.0</ele><time>2026-04-15T16:44:12Z</time></trkpt><trkpt lat="43.31504368036488" lon="10.493225382856956"><ele>2.0</ele><time>2026-04-15T16:44:17Z</time></trkpt><trkpt lat="43.31508223414463" lon="10.493300034124152"><ele>2.0</ele><time>2026-04-15T16:44:21Z</time></trkpt><trkpt lat="43.31512708747078" lon="10.493371975821379"><ele>1.9999999999999998</ele><time>2026-04-15T16:44:25Z</time></trkpt><trkpt lat="43.3151759318125" lon="10.49344111815274"><ele>2.0</ele><time>2026-04-15T16:44:29Z</time></trkpt><trkpt lat="43.315216940073576" lon="10.493513373099924"><ele>2.0</ele><time>2026-04-15T16:44:33Z</time></trkpt><trkpt lat="43.31525913763092" lon="10.493585554528517"><ele>1.9999999999999998</ele><time>2026-04-15T16:44:37Z</time></trkpt><trkpt lat="43.3153005109526" lon="10.493661731919177"><ele>2.0</ele><time>2026-04-15T16:44:41Z</time></trkpt><trkpt lat="43.315338887835516" lon="10.493733831517611"><ele>2.0</ele><time>2026-04-15T16:44:45Z</time></trkpt><trkpt lat="43.315385084476866" lon="10.493794650101636"><ele>2.0</ele><time>2026-04-15T16:44:49Z</time></trkpt><trkpt lat="43.315422888573515" lon="10.493865501560505"><ele>1.9999999999999998</ele><time>2026-04-15T16:44:53Z</time></trkpt><trkpt lat="43.315464503168165" lon="10.493934811213917"><ele>2.0</ele><time>2026-04-15T16:44:57Z</time></trkpt><trkpt lat="43.31550973535525" lon="10.494007181292039"><ele>2.0</ele><time>2026-04-15T16:45:01Z</time></trkpt><trkpt lat="43.31554692379477" lon="10.494084874840787"><ele>1.9999999999999998</ele><time>2026-04-15T16:45:05Z</time></trkpt><trkpt lat="43.31559030044594" lon="10.494160037138155"><ele>2.0</ele><time>2026-04-15T16:45:09Z</time></trkpt><trkpt lat="43.31563748397146" lon="10.494229046867531"><ele>2.0</ele><time>2026-04-15T16:45:13Z</time></trkpt><trkpt lat="43.31567469761569" lon="10.494303941083057"><ele>2.0</ele><time>2026-04-15T16:45:17Z</time></trkpt><trkpt lat="43.31571090597714" lon="10.494376057761286"><ele>1.9999999999999998</ele><time>2026-04-15T16:45:21Z</time></trkpt><trkpt lat="43.31575150026527" lon="10.49444637679731"><ele>2.0</ele><time>2026-04-15T16:45:25Z</time></trkpt><trkpt lat="43.31579866377717" lon="10.494519424031306"><ele>2.0</ele><time>2026-04-15T16:45:29Z</time></trkpt><trkpt lat="43.31583449644957" lon="10.494596765549666"><ele>1.9999999999999998</ele><time>2026-04-15T16:45:33Z</time></trkpt><trkpt lat="43.315882277997" lon="10.494669022967603"><ele>2.0</ele><time>2026-04-15T16:45:37Z</time></trkpt><trkpt lat="43.31593164089567" lon="10.49474297181999"><ele>2.0</ele><time>2026-04-15T16:45:41Z</time></trkpt><trkpt lat="43.31597310630995" lon="10.494815388002415"><ele>2.0</ele><time>2026-04-15T16:45:45Z</time></trkpt><trkpt lat="43.3160081253015" lon="10.494888539534022"><ele>1.9999999999999998</ele><time>2026-04-15T16:45:49Z</time></trkpt><trkpt lat="43.31605068287442" lon="10.494956905838993"><ele>2.0</ele><time>2026-04-15T16:45:53Z</time></trkpt><trkpt lat="43.31609639131201" lon="10.495022906635041"><ele>2.0</ele><time>2026-04-15T16:45:57Z</time></trkpt><trkpt lat="43.31614232175496" lon="10.495089469583208"><ele>1.9999999999999998</ele><time>2026-04-15T16:46:01Z</time></trkpt><trkpt lat="43.31619003871841" lon="10.495154014681829"><ele>2.0</ele><time>2026-04-15T16:46:05Z</time></trkpt><trkpt lat="43.31624078351877" lon="10.495221439938105"><ele>2.0</ele><time>2026-04-15T16:46:09Z</time></trkpt><trkpt lat="43.31628489632666" lon="10.495293461553803"><ele>2.0</ele><time>2026-04-15T16:46:13Z</time></trkpt><trkpt lat="43.31633744860467" lon="10.495368552883285"><ele>1.9999999999999998</ele><time>2026-04-15T16:46:17Z</time></trkpt><trkpt lat="43.31637438143849" lon="10.495457252402904"><ele>2.0</ele><time>2026-04-15T16:46:21Z</time></trkpt><trkpt lat="43.316414640565" lon="10.495535518038963"><ele>2.0</ele><time>2026-04-15T16:46:25Z</time></trkpt><trkpt lat="43.31646272937792" lon="10.495625126466555"><ele>1.9999999999999998</ele><time>2026-04-15T16:46:30Z</time></trkpt><trkpt lat="43.316505377966045" lon="10.495693620424854"><ele>2.0</ele><time>2026-04-15T16:46:34Z</time></trkpt><trkpt lat="43.31654579247863" lon="10.495767924152133"><ele>2.0</ele><time>2026-04-15T16:46:38Z</time></trkpt><trkpt lat="43.3165884087497" lon="10.495842346461473"><ele>2.0</ele><time>2026-04-15T16:46:42Z</time></trkpt><trkpt lat="43.3166303306383" lon="10.495913884140986"><ele>1.9999999999999998</ele><time>2026-04-15T16:46:46Z</time></trkpt><trkpt lat="43.31667693153985" lon="10.495984822864044"><ele>2.0</ele><time>2026-04-15T16:46:50Z</time></trkpt><trkpt lat="43.316717062943596" lon="10.496062168176984"><ele>2.0</ele><time>2026-04-15T16:46:54Z</time></trkpt><trkpt lat="43.31677055892306" lon="10.496134671001418"><ele>1.9999999999999998</ele><time>2026-04-15T16:46:58Z</time></trkpt><trkpt lat="43.316805937215186" lon="10.49620863398985"><ele>2.0</ele><time>2026-04-15T16:47:02Z</time></trkpt><trkpt lat="43.31684558926032" lon="10.496276587383244"><ele>2.0</ele><time>2026-04-15T16:47:06Z</time></trkpt><trkpt lat="43.316884978111894" lon="10.496352493469157"><ele>2.0</ele><time>2026-04-15T16:47:10Z</time></trkpt><trkpt lat="43.3169285431248" lon="10.496423450633104"><ele>1.9999999999999998</ele><time>2026-04-15T16:47:14Z</time></trkpt><trkpt lat="43.31697158194557" lon="10.49649448124864"><ele>2.0</ele><time>2026-04-15T16:47:18Z</time></trkpt><trkpt lat="43.31701292939831" lon="10.496564998754371"><ele>2.0</ele><time>2026-04-15T16:47:22Z</time></trkpt><trkpt lat="43.31705749450716" lon="10.49663842494974"><ele>1.9999999999999998</ele><time>2026-04-15T16:47:26Z</time></trkpt><trkpt lat="43.317097245700204" lon="10.496712786424606"><ele>2.0</ele><time>2026-04-15T16:47:30Z</time></trkpt><trkpt lat="43.31714196119649" lon="10.496778971053283"><ele>2.0</ele><time>2026-04-15T16:47:34Z</time></trkpt><trkpt lat="43.3171804390263" lon="10.496855733653861"><ele>2.0</ele><time>2026-04-15T16:47:38Z</time></trkpt><trkpt lat="43.3172271747111" lon="10.49692962069544"><ele>1.9999999999999998</ele><time>2026-04-15T16:47:42Z</time></trkpt><trkpt lat="43.31726791581381" lon="10.497001913572802"><ele>2.0</ele><time>2026-04-15T16:47:46Z</time></trkpt><trkpt lat="43.317303288634655" lon="10.497078198749996"><ele>2.0</ele><time>2026-04-15T16:47:50Z</time></trkpt><trkpt lat="43.31733521999972" lon="10.497157970676975"><ele>1.9999999999999998</ele><time>2026-04-15T16:47:54Z</time></trkpt><trkpt lat="43.31734903162102" lon="10.497242875645743"><ele>2.0</ele><time>2026-04-15T16:47:58Z</time></trkpt><trkpt lat="43.3173528847568" lon="10.497351981170171"><ele>2.0</ele><time>2026-04-15T16:48:03Z</time></trkpt><trkpt lat="43.31735444129047" lon="10.497438964318466"><ele>2.142857142857143</ele><time>2026-04-15T16:48:07Z</time></trkpt><trkpt lat="43.317358913375614" lon="10.49754879912299"><ele>2.2857142857142856</ele><time>2026-04-15T16:48:12Z</time></trkpt><trkpt lat="43.31735937453041" lon="10.497657926828044"><ele>2.4285714285714284</ele><time>2026-04-15T16:48:17Z</time></trkpt><trkpt lat="43.31734460414591" lon="10.497752667116435"><ele>2.571428571428571</ele><time>2026-04-15T16:48:22Z</time></trkpt><trkpt lat="43.31732009605201" lon="10.497848486612845"><ele>2.7142857142857144</ele><time>2026-04-15T16:48:27Z</time></trkpt><trkpt lat="43.3173141616238" lon="10.497950492629343"><ele>2.8571428571428568</ele><time>2026-04-15T16:48:32Z</time></trkpt><trkpt lat="43.317300400882054" lon="10.498042783878175"><ele>3.0</ele><time>2026-04-15T16:48:36Z</time></trkpt><trkpt lat="43.317286077984726" lon="10.498146677901268"><ele>2.9999999999999996</ele><time>2026-04-15T16:48:40Z</time></trkpt><trkpt lat="43.31728398193954" lon="10.498239534609409"><ele>3.0</ele><time>2026-04-15T16:48:44Z</time></trkpt><trkpt lat="43.31730862614522" lon="10.498336391404576"><ele>3.0</ele><time>2026-04-15T16:48:48Z</time></trkpt><trkpt lat="43.317342978734985" lon="10.498415888517878"><ele>3.0</ele><time>2026-04-15T16:48:52Z</time></trkpt><trkpt lat="43.317378294350334" lon="10.498497210126333"><ele>3.0</ele><time>2026-04-15T16:48:56Z</time></trkpt><trkpt lat="43.31742359124219" lon="10.498564570995086"><ele>2.9999999999999996</ele><time>2026-04-15T16:49:00Z</time></trkpt><trkpt lat="43.31746455283214" lon="10.498658288746787"><ele>3.0</ele><time>2026-04-15T16:49:05Z</time></trkpt><trkpt lat="43.317506074810666" lon="10.498728861459137"><ele>2.9999999999999996</ele><time>2026-04-15T16:49:09Z</time></trkpt><trkpt lat="43.31755103709617" lon="10.49880410566521"><ele>3.0</ele><time>2026-04-15T16:49:13Z</time></trkpt><trkpt lat="43.31759554327804" lon="10.49886851273455"><ele>3.0</ele><time>2026-04-15T16:49:17Z</time></trkpt><trkpt lat="43.31764684187872" lon="10.49892709990417"><ele>3.0</ele><time>2026-04-15T16:49:21Z</time></trkpt><trkpt lat="43.31770787728109" lon="10.499001764559809"><ele>3.0</ele><time>2026-04-15T16:49:26Z</time></trkpt><trkpt lat="43.31774527380078" lon="10.49907193750735"><ele>2.9999999999999996</ele><time>2026-04-15T16:49:30Z</time></trkpt><trkpt lat="43.31778866830398" lon="10.499139519878996"><ele>3.0</ele><time>2026-04-15T16:49:34Z</time></trkpt><trkpt lat="43.31784258609578" lon="10.499200606508362"><ele>2.9999999999999996</ele><time>2026-04-15T16:49:38Z</time></trkpt><trkpt lat="43.31788156178467" lon="10.499287502905894"><ele>3.0</ele><time>2026-04-15T16:49:42Z</time></trkpt><trkpt lat="43.31791860083801" lon="10.499376217669232"><ele>3.0</ele><time>2026-04-15T16:49:46Z</time></trkpt><trkpt lat="43.317971872899335" lon="10.49945056857083"><ele>3.0</ele><time>2026-04-15T16:49:51Z</time></trkpt><trkpt lat="43.31802928021981" lon="10.499502519684802"><ele>3.0</ele><time>2026-04-15T16:49:55Z</time></trkpt><trkpt lat="43.318096371107295" lon="10.499550589570239"><ele>2.9999999999999996</ele><time>2026-04-15T16:50:00Z</time></trkpt><trkpt lat="43.31815853537065" lon="10.49959133915242"><ele>3.0</ele><time>2026-04-15T16:50:04Z</time></trkpt><trkpt lat="43.318225266122475" lon="10.499632135431987"><ele>3.1428571428571423</ele><time>2026-04-15T16:50:08Z</time></trkpt><trkpt lat="43.318295408522815" lon="10.49968500926861"><ele>3.2857142857142856</ele><time>2026-04-15T16:50:13Z</time></trkpt><trkpt lat="43.31834976836544" lon="10.49973382342521"><ele>3.4285714285714284</ele><time>2026-04-15T16:50:17Z</time></trkpt><trkpt lat="43.31841380722061" lon="10.499750313274264"><ele>3.571428571428571</ele><time>2026-04-15T16:50:21Z</time></trkpt><trkpt lat="43.31847543560899" lon="10.499772199482793"><ele>3.714285714285714</ele><time>2026-04-15T16:50:25Z</time></trkpt><trkpt lat="43.3185536627646" lon="10.499774990977853"><ele>3.8571428571428568</ele><time>2026-04-15T16:50:30Z</time></trkpt><trkpt lat="43.3186289280814" lon="10.499782201501178"><ele>4.0</ele><time>2026-04-15T16:50:35Z</time></trkpt><trkpt lat="43.318693714308246" lon="10.499778789441052"><ele>4.0</ele><time>2026-04-15T16:50:39Z</time></trkpt><trkpt lat="43.31876290068395" lon="10.499783894755446"><ele>3.9999999999999996</ele><time>2026-04-15T16:50:43Z</time></trkpt><trkpt lat="43.31883455724109" lon="10.499784181871409"><ele>4.0</ele><time>2026-04-15T16:50:48Z</time></trkpt><trkpt lat="43.318891664931975" lon="10.499835593344363"><ele>4.0</ele><time>2026-04-15T16:50:52Z</time></trkpt><trkpt lat="43.31894153419791" lon="10.499912105728388"><ele>3.9999999999999996</ele><time>2026-04-15T16:50:56Z</time></trkpt><trkpt lat="43.31898452885706" lon="10.499983749081634"><ele>4.0</ele><time>2026-04-15T16:51:00Z</time></trkpt><trkpt lat="43.319034208118644" lon="10.500054726911705"><ele>4.0</ele><time>2026-04-15T16:51:04Z</time></trkpt><trkpt lat="43.319074066973705" lon="10.50012192459962"><ele>3.8571428571428568</ele><time>2026-04-15T16:51:08Z</time></trkpt><trkpt lat="43.31912020612729" lon="10.500196404197066"><ele>3.714285714285714</ele><time>2026-04-15T16:51:12Z</time></trkpt><trkpt lat="43.319162783382076" lon="10.500284278731836"><ele>3.571428571428571</ele><time>2026-04-15T16:51:16Z</time></trkpt><trkpt lat="43.31921152736042" lon="10.500350783760524"><ele>3.4285714285714284</ele><time>2026-04-15T16:51:20Z</time></trkpt><trkpt lat="43.319247488512424" lon="10.500425844129119"><ele>3.2857142857142856</ele><time>2026-04-15T16:51:24Z</time></trkpt><trkpt lat="43.31928079785936" lon="10.500507389401452"><ele>3.1428571428571423</ele><time>2026-04-15T16:51:28Z</time></trkpt><trkpt lat="43.31932381091493" lon="10.500581068020937"><ele>3.0</ele><time>2026-04-15T16:51:32Z</time></trkpt><trkpt lat="43.319360313237254" lon="10.500657701173289"><ele>2.8571428571428568</ele><time>2026-04-15T16:51:36Z</time></trkpt><trkpt lat="43.31940505061497" lon="10.50073630307155"><ele>2.7142857142857144</ele><time>2026-04-15T16:51:40Z</time></trkpt><trkpt lat="43.31945516997837" lon="10.500820473991524"><ele>2.571428571428571</ele><time>2026-04-15T16:51:45Z</time></trkpt><trkpt lat="43.31949465988756" lon="10.500898997920734"><ele>2.4285714285714284</ele><time>2026-04-15T16:51:49Z</time></trkpt><trkpt lat="43.319536549784644" lon="10.50097391339777"><ele>2.2857142857142856</ele><time>2026-04-15T16:51:53Z</time></trkpt><trkpt lat="43.31957481377059" lon="10.501044265556153"><ele>2.142857142857143</ele><time>2026-04-15T16:51:57Z</time></trkpt><trkpt lat="43.31962526012458" lon="10.501120131395435"><ele>2.0</ele><time>2026-04-15T16:52:01Z</time></trkpt><trkpt lat="43.3196664060857" lon="10.501196721908835"><ele>2.142857142857143</ele><time>2026-04-15T16:52:05Z</time></trkpt><trkpt lat="43.31970681105962" lon="10.501283087338216"><ele>2.2857142857142856</ele><time>2026-04-15T16:52:10Z</time></trkpt><trkpt lat="43.319746163058085" lon="10.50135926028018"><ele>2.4285714285714284</ele><time>2026-04-15T16:52:14Z</time></trkpt><trkpt lat="43.319774495028504" lon="10.501452587523362"><ele>2.571428571428571</ele><time>2026-04-15T16:52:18Z</time></trkpt><trkpt lat="43.31982125636012" lon="10.501526275242774"><ele>2.7142857142857144</ele><time>2026-04-15T16:52:22Z</time></trkpt><trkpt lat="43.31985571719697" lon="10.50160332819736"><ele>2.8571428571428568</ele><time>2026-04-15T16:52:26Z</time></trkpt><trkpt lat="43.31988812710275" lon="10.501681563502682"><ele>3.0</ele><time>2026-04-15T16:52:30Z</time></trkpt><trkpt lat="43.31992219932102" lon="10.50175692301054"><ele>3.1428571428571423</ele><time>2026-04-15T16:52:34Z</time></trkpt><trkpt lat="43.31995817338232" lon="10.50183469128157"><ele>3.2857142857142856</ele><time>2026-04-15T16:52:38Z</time></trkpt><trkpt lat="43.32000420703862" lon="10.50191374182012"><ele>3.4285714285714284</ele><time>2026-04-15T16:52:42Z</time></trkpt><trkpt lat="43.320050038805384" lon="10.501982782705781"><ele>3.571428571428571</ele><time>2026-04-15T16:52:46Z</time></trkpt><trkpt lat="43.32008486008679" lon="10.502062824701838"><ele>3.714285714285714</ele><time>2026-04-15T16:52:50Z</time></trkpt><trkpt lat="43.320123218575546" lon="10.502133906183234"><ele>3.8571428571428568</ele><time>2026-04-15T16:52:54Z</time></trkpt><trkpt lat="43.32015590471119" lon="10.502216299772698"><ele>4.0</ele><time>2026-04-15T16:52:58Z</time></trkpt><trkpt lat="43.3201892132005" lon="10.502298294959338"><ele>4.0</ele><time>2026-04-15T16:53:02Z</time></trkpt><trkpt lat="43.32023715266071" lon="10.502374213901655"><ele>3.9999999999999996</ele><time>2026-04-15T16:53:06Z</time></trkpt><trkpt lat="43.320272463544356" lon="10.50245279212663"><ele>4.0</ele><time>2026-04-15T16:53:10Z</time></trkpt><trkpt lat="43.32031430822212" lon="10.502523422815855"><ele>4.0</ele><time>2026-04-15T16:53:14Z</time></trkpt><trkpt lat="43.32034816529541" lon="10.502602366578204"><ele>3.9999999999999996</ele><time>2026-04-15T16:53:18Z</time></trkpt><trkpt lat="43.32038916227051" lon="10.502676635498638"><ele>4.0</ele><time>2026-04-15T16:53:22Z</time></trkpt><trkpt lat="43.32042710301074" lon="10.502748268823863"><ele>4.0</ele><time>2026-04-15T16:53:26Z</time></trkpt><trkpt lat="43.3204648013838" lon="10.502824700039707"><ele>4.0</ele><time>2026-04-15T16:53:30Z</time></trkpt><trkpt lat="43.32050608558453" lon="10.502897407882067"><ele>3.9999999999999996</ele><time>2026-04-15T16:53:34Z</time></trkpt><trkpt lat="43.32054760750975" lon="10.50297524922901"><ele>4.0</ele><time>2026-04-15T16:53:38Z</time></trkpt><trkpt lat="43.32059243101861" lon="10.503063812680608"><ele>4.0</ele><time>2026-04-15T16:53:43Z</time></trkpt><trkpt lat="43.32064256376355" lon="10.50314339185435"><ele>3.9999999999999996</ele><time>2026-04-15T16:53:47Z</time></trkpt><trkpt lat="43.320688066886966" lon="10.503213990286211"><ele>4.0</ele><time>2026-04-15T16:53:51Z</time></trkpt><trkpt lat="43.320726257643095" lon="10.503285146813393"><ele>4.0</ele><time>2026-04-15T16:53:55Z</time></trkpt><trkpt lat="43.320771952047515" lon="10.503352976739784"><ele>3.8571428571428568</ele><time>2026-04-15T16:53:59Z</time></trkpt><trkpt lat="43.320818172850466" lon="10.503438850379402"><ele>3.714285714285714</ele><time>2026-04-15T16:54:04Z</time></trkpt><trkpt lat="43.32086970927448" lon="10.50349902983518"><ele>3.571428571428571</ele><time>2026-04-15T16:54:08Z</time></trkpt><trkpt lat="43.320907521290906" lon="10.503572623254541"><ele>3.4285714285714284</ele><time>2026-04-15T16:54:12Z</time></trkpt><trkpt lat="43.32093785112429" lon="10.503657105212342"><ele>3.2857142857142856</ele><time>2026-04-15T16:54:16Z</time></trkpt><trkpt lat="43.32097668403602" lon="10.503738128402617"><ele>3.1428571428571423</ele><time>2026-04-15T16:54:20Z</time></trkpt><trkpt lat="43.32101279911263" lon="10.503825542685078"><ele>3.0</ele><time>2026-04-15T16:54:24Z</time></trkpt><trkpt lat="43.32104183188653" lon="10.50390878878971"><ele>2.8571428571428568</ele><time>2026-04-15T16:54:28Z</time></trkpt><trkpt lat="43.32107536214147" lon="10.503994620694735"><ele>2.7142857142857144</ele><time>2026-04-15T16:54:32Z</time></trkpt><trkpt lat="43.32112337769547" lon="10.50407466218764"><ele>2.571428571428571</ele><time>2026-04-15T16:54:36Z</time></trkpt><trkpt lat="43.32116377347859" lon="10.504154390495689"><ele>2.4285714285714284</ele><time>2026-04-15T16:54:40Z</time></trkpt><trkpt lat="43.32120409345225" lon="10.504231381424944"><ele>2.2857142857142856</ele><time>2026-04-15T16:54:44Z</time></trkpt><trkpt lat="43.32123544255568" lon="10.504311493831679"><ele>2.142857142857143</ele><time>2026-04-15T16:54:48Z</time></trkpt><trkpt lat="43.321277015148645" lon="10.504407523130093"><ele>2.0</ele><time>2026-04-15T16:54:53Z</time></trkpt><trkpt lat="43.321317529963274" lon="10.50449312509153"><ele>2.0</ele><time>2026-04-15T16:54:58Z</time></trkpt><trkpt lat="43.32135478117386" lon="10.504563763863846"><ele>1.9999999999999998</ele><time>2026-04-15T16:55:01Z</time></trkpt><trkpt lat="43.32140620112951" lon="10.504649811938796"><ele>2.0</ele><time>2026-04-15T16:55:05Z</time></trkpt><trkpt lat="43.32145391868081" lon="10.504723243863506"><ele>2.0</ele><time>2026-04-15T16:55:09Z</time></trkpt><trkpt lat="43.32148879061449" lon="10.504805037064237"><ele>1.9999999999999998</ele><time>2026-04-15T16:55:13Z</time></trkpt><trkpt lat="43.321523765417666" lon="10.504884769099629"><ele>2.0</ele><time>2026-04-15T16:55:17Z</time></trkpt><trkpt lat="43.321571343347216" lon="10.504957133741298"><ele>2.0</ele><time>2026-04-15T16:55:21Z</time></trkpt><trkpt lat="43.32161512817784" lon="10.505028330354245"><ele>2.2857142857142856</ele><time>2026-04-15T16:55:25Z</time></trkpt><trkpt lat="43.32165566647612" lon="10.505099467933265"><ele>2.571428571428571</ele><time>2026-04-15T16:55:29Z</time></trkpt><trkpt lat="43.321704398957166" lon="10.505185980643839"><ele>2.8571428571428568</ele><time>2026-04-15T16:55:34Z</time></trkpt><trkpt lat="43.32175505847275" lon="10.505247877429682"><ele>3.142857142857143</ele><time>2026-04-15T16:55:38Z</time></trkpt><trkpt lat="43.32179826278246" lon="10.505319580450506"><ele>3.428571428571428</ele><time>2026-04-15T16:55:42Z</time></trkpt><trkpt lat="43.32184088861155" lon="10.505388373273012"><ele>3.714285714285714</ele><time>2026-04-15T16:55:46Z</time></trkpt><trkpt lat="43.321883482870945" lon="10.505454593148585"><ele>4.0</ele><time>2026-04-15T16:55:50Z</time></trkpt><trkpt lat="43.32191058160547" lon="10.50553631221421"><ele>4.0</ele><time>2026-04-15T16:55:54Z</time></trkpt><trkpt lat="43.321935433697945" lon="10.505624093146215"><ele>3.9999999999999996</ele><time>2026-04-15T16:55:58Z</time></trkpt><trkpt lat="43.32196094129041" lon="10.505707600983289"><ele>4.0</ele><time>2026-04-15T16:56:02Z</time></trkpt><trkpt lat="43.32200270342694" lon="10.505801891298196"><ele>4.0</ele><time>2026-04-15T16:56:07Z</time></trkpt><trkpt lat="43.322046767850146" lon="10.505872920270756"><ele>3.9999999999999996</ele><time>2026-04-15T16:56:11Z</time></trkpt><trkpt lat="43.322087127455255" lon="10.505953033516315"><ele>4.0</ele><time>2026-04-15T16:56:15Z</time></trkpt><trkpt lat="43.32213638962229" lon="10.506015882748986"><ele>4.0</ele><time>2026-04-15T16:56:19Z</time></trkpt><trkpt lat="43.32217481608399" lon="10.50608826811877"><ele>4.0</ele><time>2026-04-15T16:56:23Z</time></trkpt><trkpt lat="43.32221031022219" lon="10.506166487365437"><ele>3.9999999999999996</ele><time>2026-04-15T16:56:27Z</time></trkpt><trkpt lat="43.32224282751833" lon="10.50624625935276"><ele>4.0</ele><time>2026-04-15T16:56:31Z</time></trkpt><trkpt lat="43.32229100819887" lon="10.506315968249181"><ele>4.0</ele><time>2026-04-15T16:56:35Z</time></trkpt><trkpt lat="43.32233214683991" lon="10.506408670513446"><ele>3.9999999999999996</ele><time>2026-04-15T16:56:40Z</time></trkpt><trkpt lat="43.32236671107542" lon="10.50648099914894"><ele>4.0</ele><time>2026-04-15T16:56:44Z</time></trkpt><trkpt lat="43.32241234812804" lon="10.506558497052463"><ele>4.0</ele><time>2026-04-15T16:56:48Z</time></trkpt><trkpt lat="43.32246372705621" lon="10.506625156478135"><ele>4.142857142857142</ele><time>2026-04-15T16:56:52Z</time></trkpt><trkpt lat="43.32251276558175" lon="10.506697406740402"><ele>4.285714285714286</ele><time>2026-04-15T16:56:56Z</time></trkpt><trkpt lat="43.322558678455174" lon="10.506780654953953"><ele>4.428571428571429</ele><time>2026-04-15T16:57:00Z</time></trkpt><trkpt lat="43.32259745981962" lon="10.506864794450296"><ele>4.571428571428571</ele><time>2026-04-15T16:57:04Z</time></trkpt><trkpt lat="43.32263912620152" lon="10.506939613679602"><ele>4.714285714285714</ele><time>2026-04-15T16:57:08Z</time></trkpt><trkpt lat="43.322683100307444" lon="10.507012036042932"><ele>4.857142857142857</ele><time>2026-04-15T16:57:12Z</time></trkpt><trkpt lat="43.322722000400475" lon="10.507084631988501"><ele>5.0</ele><time>2026-04-15T16:57:16Z</time></trkpt><trkpt lat="43.32275646253031" lon="10.50715928567212"><ele>5.0</ele><time>2026-04-15T16:57:20Z</time></trkpt><trkpt lat="43.32279693481758" lon="10.507230561443135"><ele>5.0</ele><time>2026-04-15T16:57:24Z</time></trkpt><trkpt lat="43.32283872613763" lon="10.507312023679376"><ele>5.0</ele><time>2026-04-15T16:57:28Z</time></trkpt><trkpt lat="43.32288439956505" lon="10.507392043301067"><ele>5.0</ele><time>2026-04-15T16:57:32Z</time></trkpt><trkpt lat="43.32292413686383" lon="10.507464113629668"><ele>5.0</ele><time>2026-04-15T16:57:36Z</time></trkpt><trkpt lat="43.32296814741335" lon="10.507537722158096"><ele>5.0</ele><time>2026-04-15T16:57:40Z</time></trkpt><trkpt lat="43.32300820265357" lon="10.507623741895925"><ele>5.0</ele><time>2026-04-15T16:57:44Z</time></trkpt><trkpt lat="43.32304834636145" lon="10.507696222871877"><ele>5.285714285714286</ele><time>2026-04-15T16:57:48Z</time></trkpt><trkpt lat="43.32308906728978" lon="10.507778116070543"><ele>5.571428571428571</ele><time>2026-04-15T16:57:52Z</time></trkpt><trkpt lat="43.32312437056754" lon="10.507858769883828"><ele>5.857142857142858</ele><time>2026-04-15T16:57:56Z</time></trkpt><trkpt lat="43.323161689610046" lon="10.507936864308993"><ele>6.142857142857142</ele><time>2026-04-15T16:58:00Z</time></trkpt><trkpt lat="43.32320436412417" lon="10.508023077890533"><ele>6.428571428571429</ele><time>2026-04-15T16:58:05Z</time></trkpt><trkpt lat="43.323241662032345" lon="10.508104220339641"><ele>6.714285714285714</ele><time>2026-04-15T16:58:09Z</time></trkpt><trkpt lat="43.323283334212924" lon="10.508192595052378"><ele>7.0</ele><time>2026-04-15T16:58:13Z</time></trkpt><trkpt lat="43.3232869240964" lon="10.508290446197039"><ele>7.0</ele><time>2026-04-15T16:58:18Z</time></trkpt><trkpt lat="43.32330912542981" lon="10.508388436781033"><ele>7.0</ele><time>2026-04-15T16:58:23Z</time></trkpt><trkpt lat="43.32332091722969" lon="10.508489641334522"><ele>7.0</ele><time>2026-04-15T16:58:28Z</time></trkpt><trkpt lat="43.32331781939032" lon="10.50858100122647"><ele>7.0</ele><time>2026-04-15T16:58:32Z</time></trkpt><trkpt lat="43.32328957787935" lon="10.508684778198983"><ele>7.0</ele><time>2026-04-15T16:58:36Z</time></trkpt><trkpt lat="43.323249353559774" lon="10.508772763403902"><ele>7.0</ele><time>2026-04-15T16:58:41Z</time></trkpt><trkpt lat="43.323213008866766" lon="10.50885645353117"><ele>7.0</ele><time>2026-04-15T16:58:45Z</time></trkpt><trkpt lat="43.32317093881864" lon="10.508935794173475"><ele>6.714285714285714</ele><time>2026-04-15T16:58:49Z</time></trkpt><trkpt lat="43.323119674606545" lon="10.509009000062473"><ele>6.428571428571429</ele><time>2026-04-15T16:58:53Z</time></trkpt><trkpt lat="43.32306987234138" lon="10.50908318210181"><ele>6.142857142857142</ele><time>2026-04-15T16:58:57Z</time></trkpt><trkpt lat="43.32301213683977" lon="10.50915006480575"><ele>5.857142857142858</ele><time>2026-04-15T16:59:02Z</time></trkpt><trkpt lat="43.3229666757192" lon="10.509237082145074"><ele>5.571428571428571</ele><time>2026-04-15T16:59:07Z</time></trkpt><trkpt lat="43.32294077528991" lon="10.509325522186204"><ele>5.285714285714286</ele><time>2026-04-15T16:59:11Z</time></trkpt><trkpt lat="43.32293217183006" lon="10.509418934927695"><ele>5.0</ele><time>2026-04-15T16:59:15Z</time></trkpt><trkpt lat="43.32294626084327" lon="10.509512115108679"><ele>5.0</ele><time>2026-04-15T16:59:19Z</time></trkpt><trkpt lat="43.32295898352003" lon="10.509604065936623"><ele>5.0</ele><time>2026-04-15T16:59:23Z</time></trkpt><trkpt lat="43.32297534910832" lon="10.509707453956862"><ele>5.0</ele><time>2026-04-15T16:59:28Z</time></trkpt><trkpt lat="43.322983867052635" lon="10.509803027111957"><ele>5.0</ele><time>2026-04-15T16:59:32Z</time></trkpt><trkpt lat="43.32297354375172" lon="10.509899615108083"><ele>5.0</ele><time>2026-04-15T16:59:36Z</time></trkpt><trkpt lat="43.3229248217793" lon="10.509964354961035"><ele>5.0</ele><time>2026-04-15T16:59:40Z</time></trkpt><trkpt lat="43.32287034623134" lon="10.510008043699509"><ele>5.0</ele><time>2026-04-15T16:59:44Z</time></trkpt><trkpt lat="43.322813033070005" lon="10.51005019219944"><ele>5.0</ele><time>2026-04-15T16:59:48Z</time></trkpt><trkpt lat="43.32275419447115" lon="10.510091324946469"><ele>5.0</ele><time>2026-04-15T16:59:52Z</time></trkpt><trkpt lat="43.32268365955192" lon="10.510117341838562"><ele>5.0</ele><time>2026-04-15T16:59:57Z</time></trkpt><trkpt lat="43.32261381994944" lon="10.510164542269138"><ele>5.0</ele><time>2026-04-15T17:00:02Z</time></trkpt><trkpt lat="43.32255259453508" lon="10.510202605950841"><ele>5.0</ele><time>2026-04-15T17:00:06Z</time></trkpt><trkpt lat="43.32249191130822" lon="10.510244738026318"><ele>5.0</ele><time>2026-04-15T17:00:10Z</time></trkpt><trkpt lat="43.322428528418975" lon="10.510278041955983"><ele>5.0</ele><time>2026-04-15T17:00:14Z</time></trkpt><trkpt lat="43.322367934585635" lon="10.51031048001034"><ele>5.0</ele><time>2026-04-15T17:00:18Z</time></trkpt><trkpt lat="43.322307435595214" lon="10.51035006479356"><ele>5.0</ele><time>2026-04-15T17:00:22Z</time></trkpt><trkpt lat="43.32224266818163" lon="10.5103941378441"><ele>5.0</ele><time>2026-04-15T17:00:26Z</time></trkpt><trkpt lat="43.322174960189095" lon="10.510437485782656"><ele>5.0</ele><time>2026-04-15T17:00:30Z</time></trkpt><trkpt lat="43.32211039353827" lon="10.510473006884656"><ele>5.0</ele><time>2026-04-15T17:00:34Z</time></trkpt><trkpt lat="43.32204300697666" lon="10.510508366028994"><ele>5.0</ele><time>2026-04-15T17:00:38Z</time></trkpt><trkpt lat="43.32197263389863" lon="10.510555763444788"><ele>5.0</ele><time>2026-04-15T17:00:43Z</time></trkpt><trkpt lat="43.32191011480294" lon="10.510595443755962"><ele>4.714285714285714</ele><time>2026-04-15T17:00:47Z</time></trkpt><trkpt lat="43.32184943555539" lon="10.51063074146166"><ele>4.428571428571429</ele><time>2026-04-15T17:00:51Z</time></trkpt><trkpt lat="43.32178099981244" lon="10.51067414154623"><ele>4.142857142857142</ele><time>2026-04-15T17:00:56Z</time></trkpt><trkpt lat="43.321719085867855" lon="10.510724696810277"><ele>3.8571428571428568</ele><time>2026-04-15T17:01:00Z</time></trkpt><trkpt lat="43.321658186683656" lon="10.510767785579077"><ele>3.571428571428571</ele><time>2026-04-15T17:01:04Z</time></trkpt><trkpt lat="43.321600626619386" lon="10.510808216617566"><ele>3.2857142857142856</ele><time>2026-04-15T17:01:08Z</time></trkpt><trkpt lat="43.32154120292484" lon="10.510840950629152"><ele>3.0</ele><time>2026-04-15T17:01:12Z</time></trkpt><trkpt lat="43.32146795352049" lon="10.510873970509628"><ele>2.9999999999999996</ele><time>2026-04-15T17:01:17Z</time></trkpt><trkpt lat="43.321401133871504" lon="10.510919382006744"><ele>3.0</ele><time>2026-04-15T17:01:21Z</time></trkpt><trkpt lat="43.32134354869828" lon="10.51096326134053"><ele>3.0</ele><time>2026-04-15T17:01:25Z</time></trkpt><trkpt lat="43.32128113516499" lon="10.511002584364473"><ele>3.0</ele><time>2026-04-15T17:01:29Z</time></trkpt><trkpt lat="43.32120855247866" lon="10.511039728823924"><ele>3.0</ele><time>2026-04-15T17:01:33Z</time></trkpt><trkpt lat="43.321143266359876" lon="10.511082596064336"><ele>2.9999999999999996</ele><time>2026-04-15T17:01:37Z</time></trkpt><trkpt lat="43.32108022641603" lon="10.511123450519232"><ele>3.0</ele><time>2026-04-15T17:01:41Z</time></trkpt><trkpt lat="43.32100664635052" lon="10.511165838086725"><ele>3.2857142857142856</ele><time>2026-04-15T17:01:47Z</time></trkpt><trkpt lat="43.32093606174209" lon="10.51120329886814"><ele>3.571428571428571</ele><time>2026-04-15T17:01:51Z</time></trkpt><trkpt lat="43.32087644005458" lon="10.511259023969108"><ele>3.8571428571428568</ele><time>2026-04-15T17:01:55Z</time></trkpt><trkpt lat="43.320811704151275" lon="10.511302962917377"><ele>4.142857142857142</ele><time>2026-04-15T17:01:59Z</time></trkpt><trkpt lat="43.3207385987605" lon="10.511341927068548"><ele>4.428571428571429</ele><time>2026-04-15T17:02:04Z</time></trkpt><trkpt lat="43.320681446984516" lon="10.51138205234055"><ele>4.714285714285714</ele><time>2026-04-15T17:02:08Z</time></trkpt><trkpt lat="43.32061701683712" lon="10.511435585202724"><ele>5.0</ele><time>2026-04-15T17:02:13Z</time></trkpt><trkpt lat="43.32053661801352" lon="10.51148229745609"><ele>5.0</ele><time>2026-04-15T17:02:18Z</time></trkpt><trkpt lat="43.3204703455961" lon="10.511523027854105"><ele>5.0</ele><time>2026-04-15T17:02:22Z</time></trkpt><trkpt lat="43.32040976049364" lon="10.511565324906508"><ele>5.0</ele><time>2026-04-15T17:02:26Z</time></trkpt><trkpt lat="43.3203394005451" lon="10.5115975916504"><ele>5.0</ele><time>2026-04-15T17:02:31Z</time></trkpt><trkpt lat="43.32027960652599" lon="10.511637724053086"><ele>5.0</ele><time>2026-04-15T17:02:35Z</time></trkpt><trkpt lat="43.32021127792531" lon="10.511677426415565"><ele>5.0</ele><time>2026-04-15T17:02:39Z</time></trkpt><trkpt lat="43.32014718944151" lon="10.511709848501658"><ele>5.0</ele><time>2026-04-15T17:02:43Z</time></trkpt><trkpt lat="43.32008184812973" lon="10.511746740502765"><ele>5.0</ele><time>2026-04-15T17:02:47Z</time></trkpt><trkpt lat="43.32001480275591" lon="10.511793667386534"><ele>5.0</ele><time>2026-04-15T17:02:52Z</time></trkpt><trkpt lat="43.31995275066401" lon="10.511839244439201"><ele>5.0</ele><time>2026-04-15T17:02:56Z</time></trkpt><trkpt lat="43.31989348419377" lon="10.511869559785275"><ele>5.0</ele><time>2026-04-15T17:03:00Z</time></trkpt><trkpt lat="43.31983018192363" lon="10.511923098339146"><ele>5.0</ele><time>2026-04-15T17:03:04Z</time></trkpt><trkpt lat="43.31977158122305" lon="10.511954730320314"><ele>5.0</ele><time>2026-04-15T17:03:08Z</time></trkpt><trkpt lat="43.31970722580381" lon="10.512001025007608"><ele>5.0</ele><time>2026-04-15T17:03:12Z</time></trkpt><trkpt lat="43.31963987310924" lon="10.51205380737544"><ele>5.142857142857142</ele><time>2026-04-15T17:03:16Z</time></trkpt><trkpt lat="43.319580281726275" lon="10.512082886240236"><ele>5.285714285714286</ele><time>2026-04-15T17:03:20Z</time></trkpt><trkpt lat="43.319514604508775" lon="10.512121715531595"><ele>5.428571428571429</ele><time>2026-04-15T17:03:24Z</time></trkpt><trkpt lat="43.31944872183967" lon="10.51216559013265"><ele>5.571428571428571</ele><time>2026-04-15T17:03:28Z</time></trkpt><trkpt lat="43.3193790855867" lon="10.512193079266765"><ele>5.714285714285714</ele><time>2026-04-15T17:03:32Z</time></trkpt><trkpt lat="43.31930997277618" lon="10.51223332000153"><ele>5.857142857142857</ele><time>2026-04-15T17:03:36Z</time></trkpt><trkpt lat="43.31924744210646" lon="10.51226936929931"><ele>6.0</ele><time>2026-04-15T17:03:40Z</time></trkpt><trkpt lat="43.31918748947587" lon="10.512307044118609"><ele>5.999999999999999</ele><time>2026-04-15T17:03:44Z</time></trkpt><trkpt lat="43.31912804462763" lon="10.51235371130152"><ele>6.0</ele><time>2026-04-15T17:03:48Z</time></trkpt><trkpt lat="43.31906479912619" lon="10.512385345087651"><ele>6.0</ele><time>2026-04-15T17:03:52Z</time></trkpt><trkpt lat="43.319003752871" lon="10.512417341775796"><ele>6.0</ele><time>2026-04-15T17:03:56Z</time></trkpt><trkpt lat="43.31893486213718" lon="10.512460933931111"><ele>6.0</ele><time>2026-04-15T17:04:00Z</time></trkpt><trkpt lat="43.318873928206024" lon="10.512487866486593"><ele>5.999999999999999</ele><time>2026-04-15T17:04:04Z</time></trkpt><trkpt lat="43.31880219976995" lon="10.512535856802987"><ele>6.0</ele><time>2026-04-15T17:04:09Z</time></trkpt><trkpt lat="43.31873736708277" lon="10.51256210360538"><ele>5.857142857142857</ele><time>2026-04-15T17:04:13Z</time></trkpt><trkpt lat="43.31866878462254" lon="10.512597969059275"><ele>5.714285714285714</ele><time>2026-04-15T17:04:17Z</time></trkpt><trkpt lat="43.318606091771976" lon="10.51262350336742"><ele>5.571428571428571</ele><time>2026-04-15T17:04:21Z</time></trkpt><trkpt lat="43.318535131267886" lon="10.512663773052834"><ele>5.428571428571429</ele><time>2026-04-15T17:04:26Z</time></trkpt><trkpt lat="43.31846508444854" lon="10.512690094108475"><ele>5.285714285714286</ele><time>2026-04-15T17:04:30Z</time></trkpt><trkpt lat="43.318396430160085" lon="10.512723147233286"><ele>5.142857142857142</ele><time>2026-04-15T17:04:34Z</time></trkpt><trkpt lat="43.31832796343709" lon="10.51275874777773"><ele>5.0</ele><time>2026-04-15T17:04:38Z</time></trkpt><trkpt lat="43.31826328426635" lon="10.51278124393912"><ele>5.0</ele><time>2026-04-15T17:04:42Z</time></trkpt><trkpt lat="43.318195342766444" lon="10.512814201050228"><ele>5.0</ele><time>2026-04-15T17:04:47Z</time></trkpt><trkpt lat="43.3181324633549" lon="10.512841674286697"><ele>5.0</ele><time>2026-04-15T17:04:51Z</time></trkpt><trkpt lat="43.31806140395051" lon="10.512865141111629"><ele>5.0</ele><time>2026-04-15T17:04:55Z</time></trkpt><trkpt lat="43.317991978811854" lon="10.512891623470315"><ele>5.0</ele><time>2026-04-15T17:04:59Z</time></trkpt><trkpt lat="43.31792732236852" lon="10.512908116887605"><ele>5.0</ele><time>2026-04-15T17:05:03Z</time></trkpt><trkpt lat="43.31785848868412" lon="10.51293287900769"><ele>5.0</ele><time>2026-04-15T17:05:07Z</time></trkpt><trkpt lat="43.31779326641391" lon="10.512961369325659"><ele>4.571428571428571</ele><time>2026-04-15T17:05:12Z</time></trkpt><trkpt lat="43.31771718710431" lon="10.51297708452251"><ele>4.142857142857143</ele><time>2026-04-15T17:05:17Z</time></trkpt><trkpt lat="43.317652766787326" lon="10.51299994336321"><ele>3.7142857142857144</ele><time>2026-04-15T17:05:21Z</time></trkpt><trkpt lat="43.31758185409774" lon="10.513024726528329"><ele>3.2857142857142856</ele><time>2026-04-15T17:05:25Z</time></trkpt><trkpt lat="43.31750768248615" lon="10.513055685785218"><ele>2.8571428571428568</ele><time>2026-04-15T17:05:29Z</time></trkpt><trkpt lat="43.31743948812322" lon="10.51307318031215"><ele>2.4285714285714284</ele><time>2026-04-15T17:05:33Z</time></trkpt><trkpt lat="43.31736738600364" lon="10.51310008856693"><ele>2.0</ele><time>2026-04-15T17:05:37Z</time></trkpt><trkpt lat="43.317303920364346" lon="10.513120190713797"><ele>2.0</ele><time>2026-04-15T17:05:41Z</time></trkpt><trkpt lat="43.3172380311774" lon="10.513148591646269"><ele>1.9999999999999998</ele><time>2026-04-15T17:05:46Z</time></trkpt><trkpt lat="43.317170302788405" lon="10.513166824965932"><ele>2.0</ele><time>2026-04-15T17:05:50Z</time></trkpt><trkpt lat="43.3171029320163" lon="10.513198416674497"><ele>2.0</ele><time>2026-04-15T17:05:54Z</time></trkpt><trkpt lat="43.31703589689542" lon="10.51321454206357"><ele>1.9999999999999998</ele><time>2026-04-15T17:05:58Z</time></trkpt><trkpt lat="43.31697166872813" lon="10.513251715568277"><ele>2.0</ele><time>2026-04-15T17:06:02Z</time></trkpt><trkpt lat="43.316905726009594" lon="10.513299331966268"><ele>2.0</ele><time>2026-04-15T17:06:06Z</time></trkpt><trkpt lat="43.31683173935843" lon="10.513323173351742"><ele>2.142857142857143</ele><time>2026-04-15T17:06:10Z</time></trkpt><trkpt lat="43.31676921285748" lon="10.513355848937039"><ele>2.2857142857142856</ele><time>2026-04-15T17:06:14Z</time></trkpt><trkpt lat="43.3167036916659" lon="10.513380186309377"><ele>2.4285714285714284</ele><time>2026-04-15T17:06:18Z</time></trkpt><trkpt lat="43.31663819764805" lon="10.513405463058275"><ele>2.571428571428571</ele><time>2026-04-15T17:06:22Z</time></trkpt><trkpt lat="43.3165702470106" lon="10.51342695993346"><ele>2.7142857142857144</ele><time>2026-04-15T17:06:26Z</time></trkpt><trkpt lat="43.31650805385681" lon="10.513447260784856"><ele>2.8571428571428568</ele><time>2026-04-15T17:06:30Z</time></trkpt><trkpt lat="43.31644269536658" lon="10.513483719337055"><ele>3.0</ele><time>2026-04-15T17:06:34Z</time></trkpt><trkpt lat="43.31637633788511" lon="10.513504349304672"><ele>3.1428571428571423</ele><time>2026-04-15T17:06:38Z</time></trkpt><trkpt lat="43.31630781915986" lon="10.51354236642921"><ele>3.2857142857142856</ele><time>2026-04-15T17:06:42Z</time></trkpt><trkpt lat="43.316236687845745" lon="10.513570073973757"><ele>3.4285714285714284</ele><time>2026-04-15T17:06:46Z</time></trkpt><trkpt lat="43.316167563408854" lon="10.513588469521558"><ele>3.571428571428571</ele><time>2026-04-15T17:06:50Z</time></trkpt><trkpt lat="43.31610186029381" lon="10.513608004908809"><ele>3.714285714285714</ele><time>2026-04-15T17:06:54Z</time></trkpt><trkpt lat="43.31604003635272" lon="10.513636550800923"><ele>3.8571428571428568</ele><time>2026-04-15T17:06:58Z</time></trkpt><trkpt lat="43.31597320087378" lon="10.513671128489102"><ele>4.0</ele><time>2026-04-15T17:07:02Z</time></trkpt><trkpt lat="43.31590187432825" lon="10.51371347041325"><ele>4.142857142857142</ele><time>2026-04-15T17:07:06Z</time></trkpt><trkpt lat="43.315844052707234" lon="10.513749408801857"><ele>4.285714285714286</ele><time>2026-04-15T17:07:10Z</time></trkpt><trkpt lat="43.31577336648321" lon="10.513797322187086"><ele>4.428571428571429</ele><time>2026-04-15T17:07:15Z</time></trkpt><trkpt lat="43.31571405504926" lon="10.513839083541946"><ele>4.571428571428571</ele><time>2026-04-15T17:07:19Z</time></trkpt><trkpt lat="43.31565470509366" lon="10.513893368946167"><ele>4.714285714285714</ele><time>2026-04-15T17:07:23Z</time></trkpt><trkpt lat="43.315598172535275" lon="10.513936519763616"><ele>4.857142857142857</ele><time>2026-04-15T17:07:27Z</time></trkpt><trkpt lat="43.31553951375363" lon="10.513987423592955"><ele>5.0</ele><time>2026-04-15T17:07:31Z</time></trkpt><trkpt lat="43.31548281834538" lon="10.514029648419182"><ele>5.0</ele><time>2026-04-15T17:07:35Z</time></trkpt><trkpt lat="43.315415458770154" lon="10.514077798979615"><ele>5.0</ele><time>2026-04-15T17:07:40Z</time></trkpt><trkpt lat="43.315360290019065" lon="10.514127735059063"><ele>5.0</ele><time>2026-04-15T17:07:44Z</time></trkpt><trkpt lat="43.31530306414103" lon="10.514184710023295"><ele>5.0</ele><time>2026-04-15T17:07:48Z</time></trkpt><trkpt lat="43.31523472270874" lon="10.514226403649031"><ele>5.0</ele><time>2026-04-15T17:07:52Z</time></trkpt><trkpt lat="43.31517880485446" lon="10.514272731079616"><ele>5.0</ele><time>2026-04-15T17:07:56Z</time></trkpt><trkpt lat="43.31511567548235" lon="10.514316801870162"><ele>5.0</ele><time>2026-04-15T17:08:00Z</time></trkpt><trkpt lat="43.31505980650746" lon="10.514362811861039"><ele>5.0</ele><time>2026-04-15T17:08:04Z</time></trkpt><trkpt lat="43.31500220154429" lon="10.514416922667378"><ele>5.0</ele><time>2026-04-15T17:08:08Z</time></trkpt><trkpt lat="43.31494694701964" lon="10.514477346330166"><ele>5.0</ele><time>2026-04-15T17:08:12Z</time></trkpt><trkpt lat="43.31488950327742" lon="10.514526447317424"><ele>5.0</ele><time>2026-04-15T17:08:16Z</time></trkpt><trkpt lat="43.31483055922708" lon="10.514576141214775"><ele>5.0</ele><time>2026-04-15T17:08:20Z</time></trkpt><trkpt lat="43.31476214464547" lon="10.514626387217191"><ele>5.0</ele><time>2026-04-15T17:08:25Z</time></trkpt><trkpt lat="43.314700271915235" lon="10.51468293227651"><ele>5.0</ele><time>2026-04-15T17:08:29Z</time></trkpt><trkpt lat="43.31464365341478" lon="10.51472345642692"><ele>5.571428571428571</ele><time>2026-04-15T17:08:33Z</time></trkpt><trkpt lat="43.3145845887019" lon="10.514761827443442"><ele>6.142857142857143</ele><time>2026-04-15T17:08:37Z</time></trkpt><trkpt lat="43.314523851727586" lon="10.51481100585768"><ele>6.714285714285715</ele><time>2026-04-15T17:08:41Z</time></trkpt><trkpt lat="43.31445385370028" lon="10.514805053303988"><ele>7.2857142857142865</ele><time>2026-04-15T17:08:47Z</time></trkpt><trkpt lat="43.3143852203387" lon="10.514770318468676"><ele>7.857142857142858</ele><time>2026-04-15T17:08:53Z</time></trkpt><trkpt lat="43.31432483899096" lon="10.514827790663613"><ele>8.428571428571429</ele><time>2026-04-15T17:08:57Z</time></trkpt><trkpt lat="43.314274334909065" lon="10.514905612216763"><ele>9.0</ele><time>2026-04-15T17:09:01Z</time></trkpt><trkpt lat="43.31422969154626" lon="10.514970097308732"><ele>9.000000000000002</ele><time>2026-04-15T17:09:05Z</time></trkpt><trkpt lat="43.314211860145" lon="10.51505571559436"><ele>9.0</ele><time>2026-04-15T17:09:09Z</time></trkpt><trkpt lat="43.314181762103225" lon="10.515147968454377"><ele>9.0</ele><time>2026-04-15T17:09:14Z</time></trkpt><trkpt lat="43.31417834755028" lon="10.515240685690836"><ele>9.0</ele><time>2026-04-15T17:09:20Z</time></trkpt><trkpt lat="43.314247633512565" lon="10.515311550168327"><ele>9.0</ele><time>2026-04-15T17:09:24Z</time></trkpt><trkpt lat="43.31430010965413" lon="10.51536916256391"><ele>9.000000000000002</ele><time>2026-04-15T17:09:30Z</time></trkpt><trkpt lat="43.31427153195967" lon="10.515465253554678"><ele>9.0</ele><time>2026-04-15T17:09:33Z</time></trkpt><trkpt lat="43.31426059305015" lon="10.5155512474837"><ele>9.571428571428573</ele><time>2026-04-15T17:09:36Z</time></trkpt><trkpt lat="43.31425130343914" lon="10.515643434980552"><ele>10.142857142857142</ele><time>2026-04-15T17:09:40Z</time></trkpt><trkpt lat="43.31421190483519" lon="10.515735168007087"><ele>10.714285714285715</ele><time>2026-04-15T17:09:44Z</time></trkpt><trkpt lat="43.31420438105524" lon="10.515839611277757"><ele>11.285714285714286</ele><time>2026-04-15T17:09:48Z</time></trkpt><trkpt lat="43.31423584849396" lon="10.515923264450308"><ele>11.857142857142858</ele><time>2026-04-15T17:09:52Z</time></trkpt><trkpt lat="43.314262942176065" lon="10.516001804179982"><ele>12.428571428571429</ele><time>2026-04-15T17:09:56Z</time></trkpt><trkpt lat="43.31427983735718" lon="10.516090287250552"><ele>13.0</ele><time>2026-04-15T17:10:01Z</time></trkpt><trkpt lat="43.31429625604711" lon="10.516191614817023"><ele>13.285714285714285</ele><time>2026-04-15T17:10:05Z</time></trkpt><trkpt lat="43.314343680106866" lon="10.516277758464785"><ele>13.571428571428573</ele><time>2026-04-15T17:10:09Z</time></trkpt><trkpt lat="43.314378410527375" lon="10.516357200092829"><ele>13.857142857142858</ele><time>2026-04-15T17:10:13Z</time></trkpt><trkpt lat="43.31439684737985" lon="10.516457600981926"><ele>14.142857142857142</ele><time>2026-04-15T17:10:17Z</time></trkpt><trkpt lat="43.314431536106895" lon="10.516550913848798"><ele>14.428571428571427</ele><time>2026-04-15T17:10:22Z</time></trkpt><trkpt lat="43.3144489765987" lon="10.516648052257954"><ele>14.714285714285715</ele><time>2026-04-15T17:10:26Z</time></trkpt><trkpt lat="43.314458323015074" lon="10.516735223591493"><ele>15.0</ele><time>2026-04-15T17:10:31Z</time></trkpt><trkpt lat="43.314477497286894" lon="10.51681917757317"><ele>15.0</ele><time>2026-04-15T17:10:35Z</time></trkpt><trkpt lat="43.31450104127144" lon="10.51690389041432"><ele>15.0</ele><time>2026-04-15T17:10:39Z</time></trkpt><trkpt lat="43.31450773206657" lon="10.516995477310628"><ele>15.0</ele><time>2026-04-15T17:10:43Z</time></trkpt><trkpt lat="43.31445409386212" lon="10.51705881975149"><ele>15.0</ele><time>2026-04-15T17:10:48Z</time></trkpt><trkpt lat="43.31440167997452" lon="10.51712708878029"><ele>15.0</ele><time>2026-04-15T17:10:53Z</time></trkpt><trkpt lat="43.314334825047084" lon="10.517177766294353"><ele>15.0</ele><time>2026-04-15T17:10:58Z</time></trkpt><trkpt lat="43.31433130186638" lon="10.517271959930556"><ele>15.0</ele><time>2026-04-15T17:11:03Z</time></trkpt><trkpt lat="43.31435113067615" lon="10.517361417398723"><ele>15.0</ele><time>2026-04-15T17:11:08Z</time></trkpt><trkpt lat="43.314369857571265" lon="10.517454834726555"><ele>15.0</ele><time>2026-04-15T17:11:13Z</time></trkpt><trkpt lat="43.3143831745543" lon="10.517545034463257"><ele>15.0</ele><time>2026-04-15T17:11:18Z</time></trkpt><trkpt lat="43.31440884206895" lon="10.517633749237143"><ele>15.0</ele><time>2026-04-15T17:11:22Z</time></trkpt><trkpt lat="43.31439088158834" lon="10.51771911056693"><ele>15.0</ele><time>2026-04-15T17:11:29Z</time></trkpt><trkpt lat="43.31438158791506" lon="10.51783406172187"><ele>15.0</ele><time>2026-04-15T17:11:33Z</time></trkpt><trkpt lat="43.3143655151432" lon="10.51791987505342"><ele>15.0</ele><time>2026-04-15T17:11:36Z</time></trkpt><trkpt lat="43.3143963965639" lon="10.518031080991156"><ele>15.0</ele><time>2026-04-15T17:11:40Z</time></trkpt><trkpt lat="43.31444240975389" lon="10.51810077818368"><ele>15.0</ele><time>2026-04-15T17:11:43Z</time></trkpt><trkpt lat="43.314477410207786" lon="10.518177242511305"><ele>15.0</ele><time>2026-04-15T17:11:48Z</time></trkpt><trkpt lat="43.31451049102167" lon="10.51826095456394"><ele>15.0</ele><time>2026-04-15T17:11:53Z</time></trkpt><trkpt lat="43.31453978069559" lon="10.518349400056666"><ele>15.0</ele><time>2026-04-15T17:11:56Z</time></trkpt><trkpt lat="43.314578325130014" lon="10.518419770742259"><ele>15.0</ele><time>2026-04-15T17:12:00Z</time></trkpt><trkpt lat="43.314639123554706" lon="10.51848505395377"><ele>15.0</ele><time>2026-04-15T17:12:04Z</time></trkpt><trkpt lat="43.31463326074128" lon="10.518579388342035"><ele>15.0</ele><time>2026-04-15T17:12:09Z</time></trkpt><trkpt lat="43.31457682659281" lon="10.518647784301752"><ele>15.0</ele><time>2026-04-15T17:12:12Z</time></trkpt><trkpt lat="43.31460348651714" lon="10.518737270569035"><ele>15.0</ele><time>2026-04-15T17:12:20Z</time></trkpt><trkpt lat="43.31465900229276" lon="10.51878417712335"><ele>15.0</ele><time>2026-04-15T17:12:24Z</time></trkpt><trkpt lat="43.31468004347394" lon="10.518874946010593"><ele>15.0</ele><time>2026-04-15T17:12:28Z</time></trkpt><trkpt lat="43.314725629898945" lon="10.51893896551845"><ele>15.0</ele><time>2026-04-15T17:12:32Z</time></trkpt><trkpt lat="43.31478064080833" lon="10.518982091171443"><ele>15.0</ele><time>2026-04-15T17:12:35Z</time></trkpt><trkpt lat="43.31481584377513" lon="10.51906354201625"><ele>15.571428571428573</ele><time>2026-04-15T17:12:39Z</time></trkpt><trkpt lat="43.3148458279588" lon="10.519159621284073"><ele>16.142857142857142</ele><time>2026-04-15T17:12:43Z</time></trkpt><trkpt lat="43.314844740793866" lon="10.519254778717535"><ele>16.714285714285715</ele><time>2026-04-15T17:12:48Z</time></trkpt><trkpt lat="43.314843524016624" lon="10.519348840218298"><ele>17.285714285714285</ele><time>2026-04-15T17:12:52Z</time></trkpt><trkpt lat="43.3148775908237" lon="10.519439362855843"><ele>17.857142857142858</ele><time>2026-04-15T17:12:57Z</time></trkpt><trkpt lat="43.31492884429779" lon="10.51950958594958"><ele>18.428571428571427</ele><time>2026-04-15T17:13:01Z</time></trkpt><trkpt lat="43.31496704980576" lon="10.519590845011951"><ele>19.0</ele><time>2026-04-15T17:13:05Z</time></trkpt><trkpt lat="43.31499504570541" lon="10.519705266480083"><ele>19.0</ele><time>2026-04-15T17:13:10Z</time></trkpt><trkpt lat="43.31500967999488" lon="10.519797832617844"><ele>19.0</ele><time>2026-04-15T17:13:14Z</time></trkpt><trkpt lat="43.315011976025666" lon="10.519896576574752"><ele>19.0</ele><time>2026-04-15T17:13:18Z</time></trkpt><trkpt lat="43.315041463041304" lon="10.519981406977573"><ele>19.0</ele><time>2026-04-15T17:13:22Z</time></trkpt><trkpt lat="43.315066323923496" lon="10.52006221612731"><ele>19.0</ele><time>2026-04-15T17:13:26Z</time></trkpt><trkpt lat="43.31509317160265" lon="10.520154868809326"><ele>19.0</ele><time>2026-04-15T17:13:31Z</time></trkpt><trkpt lat="43.31512227009092" lon="10.520247513790972"><ele>19.0</ele><time>2026-04-15T17:13:36Z</time></trkpt><trkpt lat="43.315150954705906" lon="10.5203539897688"><ele>18.428571428571427</ele><time>2026-04-15T17:13:41Z</time></trkpt><trkpt lat="43.31517742652513" lon="10.520448266533759"><ele>17.857142857142858</ele><time>2026-04-15T17:13:46Z</time></trkpt><trkpt lat="43.31521352239153" lon="10.520532679905829"><ele>17.285714285714285</ele><time>2026-04-15T17:13:50Z</time></trkpt><trkpt lat="43.315200361598116" lon="10.52062498391097"><ele>16.714285714285715</ele><time>2026-04-15T17:13:55Z</time></trkpt><trkpt lat="43.3151417889641" lon="10.520591564651012"><ele>16.142857142857142</ele><time>2026-04-15T17:13:59Z</time></trkpt><trkpt lat="43.31507195111774" lon="10.520619142883941"><ele>15.571428571428573</ele><time>2026-04-15T17:14:04Z</time></trkpt><trkpt lat="43.31500022887686" lon="10.520611812880503"><ele>15.0</ele><time>2026-04-15T17:14:09Z</time></trkpt><trkpt lat="43.31492558106645" lon="10.52063412402785"><ele>15.0</ele><time>2026-04-15T17:14:15Z</time></trkpt><trkpt lat="43.3148619880962" lon="10.520635571264616"><ele>15.0</ele><time>2026-04-15T17:14:19Z</time></trkpt><trkpt lat="43.31479854819974" lon="10.520613890648457"><ele>15.0</ele><time>2026-04-15T17:14:24Z</time></trkpt><trkpt lat="43.31472428135137" lon="10.520627248726349"><ele>15.0</ele><time>2026-04-15T17:14:28Z</time></trkpt><trkpt lat="43.31465221975043" lon="10.520625191188754"><ele>15.0</ele><time>2026-04-15T17:14:32Z</time></trkpt><trkpt lat="43.314589187727" lon="10.520642250646771"><ele>15.0</ele><time>2026-04-15T17:14:36Z</time></trkpt><trkpt lat="43.31450924151467" lon="10.520638467771162"><ele>15.0</ele><time>2026-04-15T17:14:40Z</time></trkpt><trkpt lat="43.31443297582186" lon="10.520631082556639"><ele>15.285714285714286</ele><time>2026-04-15T17:14:44Z</time></trkpt><trkpt lat="43.31436189666135" lon="10.520626552190057"><ele>15.57142857142857</ele><time>2026-04-15T17:14:49Z</time></trkpt><trkpt lat="43.31429639501526" lon="10.520663371846188"><ele>15.857142857142856</ele><time>2026-04-15T17:14:54Z</time></trkpt><trkpt lat="43.31423050081944" lon="10.520696118737755"><ele>16.142857142857142</ele><time>2026-04-15T17:14:58Z</time></trkpt><trkpt lat="43.31416345224581" lon="10.520756217793762"><ele>16.428571428571427</ele><time>2026-04-15T17:15:02Z</time></trkpt><trkpt lat="43.31410090397733" lon="10.520807263458593"><ele>16.71428571428571</ele><time>2026-04-15T17:15:06Z</time></trkpt><trkpt lat="43.31402996266313" lon="10.520856272111887"><ele>17.0</ele><time>2026-04-15T17:15:10Z</time></trkpt><trkpt lat="43.3139625714207" lon="10.520900745267843"><ele>17.285714285714285</ele><time>2026-04-15T17:15:14Z</time></trkpt><trkpt lat="43.313897286037914" lon="10.520958273853763"><ele>17.57142857142857</ele><time>2026-04-15T17:15:18Z</time></trkpt><trkpt lat="43.31383461311014" lon="10.521016148451748"><ele>17.857142857142854</ele><time>2026-04-15T17:15:22Z</time></trkpt><trkpt lat="43.31379330800935" lon="10.52109021303668"><ele>18.142857142857142</ele><time>2026-04-15T17:15:26Z</time></trkpt><trkpt lat="43.31375186627659" lon="10.521160445601703"><ele>18.42857142857143</ele><time>2026-04-15T17:15:30Z</time></trkpt><trkpt lat="43.31371135455064" lon="10.52122796329537"><ele>18.71428571428571</ele><time>2026-04-15T17:15:34Z</time></trkpt><trkpt lat="43.31367208978647" lon="10.52129976528325"><ele>19.0</ele><time>2026-04-15T17:15:38Z</time></trkpt><trkpt lat="43.31364895732216" lon="10.521385897608509"><ele>19.0</ele><time>2026-04-15T17:15:42Z</time></trkpt><trkpt lat="43.31362064676636" lon="10.521470370217584"><ele>19.0</ele><time>2026-04-15T17:15:46Z</time></trkpt><trkpt lat="43.31357937261705" lon="10.521544264692514"><ele>19.0</ele><time>2026-04-15T17:15:51Z</time></trkpt><trkpt lat="43.31354511369555" lon="10.52164174419371"><ele>19.0</ele><time>2026-04-15T17:15:56Z</time></trkpt><trkpt lat="43.31351417149447" lon="10.521718329961628"><ele>19.0</ele><time>2026-04-15T17:16:00Z</time></trkpt><trkpt lat="43.313478812528864" lon="10.52180919633875"><ele>19.0</ele><time>2026-04-15T17:16:04Z</time></trkpt><trkpt lat="43.31344930500784" lon="10.521894682219576"><ele>19.0</ele><time>2026-04-15T17:16:08Z</time></trkpt><trkpt lat="43.31337518389521" lon="10.521920878088213"><ele>19.0</ele><time>2026-04-15T17:16:15Z</time></trkpt><trkpt lat="43.31332765231778" lon="10.52199920544462"><ele>19.0</ele><time>2026-04-15T17:16:19Z</time></trkpt><trkpt lat="43.313275744814945" lon="10.522058823053065"><ele>19.0</ele><time>2026-04-15T17:16:23Z</time></trkpt><trkpt lat="43.313204712009785" lon="10.522096749248984"><ele>19.0</ele><time>2026-04-15T17:16:28Z</time></trkpt><trkpt lat="43.31314396173098" lon="10.522121306218784"><ele>19.0</ele><time>2026-04-15T17:16:33Z</time></trkpt><trkpt lat="43.31309585141243" lon="10.522201510231419"><ele>19.0</ele><time>2026-04-15T17:16:38Z</time></trkpt><trkpt lat="43.313035966328286" lon="10.522269670432847"><ele>19.0</ele><time>2026-04-15T17:16:43Z</time></trkpt><trkpt lat="43.312969925058624" lon="10.522282358017563"><ele>19.142857142857142</ele><time>2026-04-15T17:16:48Z</time></trkpt><trkpt lat="43.31289643413868" lon="10.522253616968355"><ele>19.28571428571429</ele><time>2026-04-15T17:16:52Z</time></trkpt><trkpt lat="43.31283081293497" lon="10.522307256433972"><ele>19.42857142857143</ele><time>2026-04-15T17:16:56Z</time></trkpt><trkpt lat="43.312756872754726" lon="10.522323164926913"><ele>19.57142857142857</ele><time>2026-04-15T17:17:01Z</time></trkpt><trkpt lat="43.31270141937804" lon="10.522370103634222"><ele>19.714285714285715</ele><time>2026-04-15T17:17:05Z</time></trkpt><trkpt lat="43.312643757315236" lon="10.522431250895155"><ele>19.857142857142858</ele><time>2026-04-15T17:17:09Z</time></trkpt><trkpt lat="43.31258511758064" lon="10.522505561060806"><ele>20.0</ele><time>2026-04-15T17:17:14Z</time></trkpt><trkpt lat="43.31251072846709" lon="10.5225061549358"><ele>20.0</ele><time>2026-04-15T17:17:18Z</time></trkpt><trkpt lat="43.31245221809033" lon="10.522572582503459"><ele>20.0</ele><time>2026-04-15T17:17:22Z</time></trkpt><trkpt lat="43.31239855986348" lon="10.522635919340608"><ele>20.0</ele><time>2026-04-15T17:17:27Z</time></trkpt><trkpt lat="43.3123547848601" lon="10.522705284307259"><ele>20.0</ele><time>2026-04-15T17:17:32Z</time></trkpt><trkpt lat="43.312316063393496" lon="10.522787594172515"><ele>20.0</ele><time>2026-04-15T17:17:37Z</time></trkpt><trkpt lat="43.31224294677219" lon="10.522817192763883"><ele>20.0</ele><time>2026-04-15T17:17:43Z</time></trkpt><trkpt lat="43.31218225713862" lon="10.522847882416617"><ele>20.0</ele><time>2026-04-15T17:17:48Z</time></trkpt><trkpt lat="43.31212817414852" lon="10.522915679845575"><ele>19.714285714285715</ele><time>2026-04-15T17:17:52Z</time></trkpt><trkpt lat="43.312062699183244" lon="10.522953261978486"><ele>19.42857142857143</ele><time>2026-04-15T17:17:57Z</time></trkpt><trkpt lat="43.3119953694554" lon="10.522936963469489"><ele>19.142857142857146</ele><time>2026-04-15T17:18:00Z</time></trkpt><trkpt lat="43.31193178843337" lon="10.522936689585881"><ele>18.857142857142858</ele><time>2026-04-15T17:18:05Z</time></trkpt><trkpt lat="43.31186930737945" lon="10.522953917204504"><ele>18.571428571428573</ele><time>2026-04-15T17:18:09Z</time></trkpt><trkpt lat="43.31177963021306" lon="10.52297235987075"><ele>18.28571428571429</ele><time>2026-04-15T17:18:14Z</time></trkpt><trkpt lat="43.31171263514418" lon="10.523004473156465"><ele>18.0</ele><time>2026-04-15T17:18:17Z</time></trkpt><trkpt lat="43.31164319886141" lon="10.523021530813775"><ele>18.0</ele><time>2026-04-15T17:18:21Z</time></trkpt><trkpt lat="43.31158014866509" lon="10.52304040280732"><ele>18.0</ele><time>2026-04-15T17:18:25Z</time></trkpt><trkpt lat="43.31151710364" lon="10.523087338486409"><ele>18.0</ele><time>2026-04-15T17:18:29Z</time></trkpt><trkpt lat="43.31145424738003" lon="10.523138625125705"><ele>18.0</ele><time>2026-04-15T17:18:33Z</time></trkpt><trkpt lat="43.311398304261516" lon="10.523186184372348"><ele>15.0</ele><time>2026-04-15T17:18:37Z</time></trkpt><trkpt lat="43.31133817610984" lon="10.523216595132276"><ele>15.0</ele><time>2026-04-15T17:18:43Z</time></trkpt></trkseg></trk></gpx>